Su Yang Bo 001 — 000000 — position and weather

sailwx.info

Track history (hours):
 
Tides and Currents Weather Stations Pressure Air Temp Water Temp Dewpoint Dewpoint Depression Visibility Wind Speed Wind Dir Waves Ship Positions

Su Yang Bo 001

Last reported at 2018-Apr-25 02:47 UTC. Time now 2018-Apr-25 05:00 UTC.
Position N 31°29' E 121°25'.

Length 50 m.

Type: Towing. MMSI: 200002069.

Date/timePositionNaut miles runAvg speedWind from/ knotsBaromVisibWave heightAir tempDewpointWater temp
2018-Apr-25 02:47N 31°29' E 121°25'1 3.8
2018-Apr-25 02:30N 31°30' E 121°24'5082603.2
2018-Apr-25 02:19N 23°45' E 117°30'51011261.3
2018-Apr-25 02:16N 31°31' E 121°24'147.9
2018-Apr-25 02:14N 31°32' E 121°22'55955.1
2018-Apr-25 02:11N 31°58' E 120°26'4043687.3
2018-Apr-25 02:04N 38°37' E 121°45'4266673.2
2018-Apr-25 02:00N 31°31' E 121°25'571516.9
2018-Apr-25 01:58N 31°59' E 120°27'518109618.7
2018-Apr-25 01:58N 23°45' E 117°30'50963174.9
2018-Apr-25 01:57N 31°31' E 121°21'241.3
2018-Apr-25 01:54N 31°31' E 121°24'4266010.1
2018-Apr-25 01:50N 38°36' E 121°45'4251272.8
2018-Apr-25 01:30N 31°32' E 121°20'7947.3
2018-Apr-25 01:30N 31°29' E 121°27'42821414.9
2018-Apr-25 01:28N 38°37' E 121°44'91876817.4
2018-Apr-25 01:28N 23°45' E 117°30'5188790.6
2018-Apr-25 01:24N 31°59' E 120°27'0 0.0
2018-Apr-25 01:00N 31°59' E 120°27'508242.6
2018-Apr-25 01:00N 31°34' E 121°18'51012939.9
2018-Apr-25 00:58N 23°45' E 117°30'91815018.7
2018-Apr-25 00:54N 38°37' E 121°45'4194367.3
2018-Apr-25 00:48N 31°39' E 121°14'414.3
2018-Apr-25 00:30N 31°35' E 121°17'4987619.5
2018-Apr-25 00:30N 31°59' E 120°27'473087.6
2018-Apr-25 00:29N 31°37' E 121°16'51317415.5
2018-Apr-25 00:28N 23°45' E 117°30'5181144.0
2018-Apr-25 00:00N 31°59' E 120°27'512201.6
2018-Apr-24 23:59N 31°35' E 121°19'51120684.3
2018-Apr-24 23:58N 23°45' E 117°30'7502897.5
2018-Apr-24 23:42N 35°58' E 120°32'2701375.0
2018-Apr-24 23:30N 31°32' E 121°22'51011477.2
2018-Apr-24 23:28N 23°45' E 117°30'7508489.4
2018-Apr-24 23:22N 35°58' E 120°31'7502046.5
2018-Apr-24 23:00N 23°44' E 117°32'51452848.8
2018-Apr-24 23:00N 31°40' E 121°12'161278.8
2018-Apr-24 22:59N 31°30' E 121°26'5121073.2
2018-Apr-24 22:30N 23°41' E 117°33'9244161.1
2018-Apr-24 22:17N 38°37' E 121°51'9273332.6
2018-Apr-24 22:00N 23°37' E 117°34'5054165.6
2018-Apr-24 21:53N 31°15' E 121°32'28819920.3
2018-Apr-24 21:52N 35°59' E 120°33'28810679.2
2018-Apr-24 21:51N 31°15' E 121°30'5061495.8
2018-Apr-24 21:30N 23°34' E 117°34'50621421.7
2018-Apr-24 21:29N 31°15' E 121°30'2886646.1
2018-Apr-24 21:26N 35°59' E 120°32'7641350.4
2018-Apr-24 20:52N 23°30' E 117°35'1530.2
2018-Apr-24 20:22N 23°45' E 117°30'49228544.1
2018-Apr-24 20:21N 31°09' E 121°28'4492427.9
2018-Apr-24 20:10N 38°38' E 121°58'9225956.2
2018-Apr-24 20:00N 23°45' E 117°32'9223234.4
2018-Apr-24 19:43N 38°38' E 121°58'9254003.5
2018-Apr-24 19:29N 23°41' E 117°33'5212565.5
2018-Apr-24 19:17N 31°59' E 120°27'4065472.1
2018-Apr-24 19:13N 38°38' E 121°57'545927182.9
2018-Apr-24 19:01N 37°47' W 122°16'5460225923.8
2018-Apr-24 18:59N 38°38' E 121°56'40638429.6
2018-Apr-24 18:59N 31°59' E 120°27'5783385549.4
2018-Apr-24 18:58N 37°47' W 122°16'62577508614.3
2018-Apr-24 18:58N 23°37' E 117°34'9271799.7
2018-Apr-24 18:27N 38°38' E 121°54'1 2.5
2018-Apr-24 18:00N 38°37' E 121°53'453486.2
2018-Apr-24 17:04N 31°06' E 120°56'0 4.1
2018-Apr-24 17:00N 31°06' E 120°56'454459.7
2018-Apr-24 16:01N 38°38' E 121°48'0 2.2
2018-Apr-24 15:59N 38°38' E 121°48'10574363.1
2018-Apr-24 15:45N 22°18' E 114°09'10564380.8
2018-Apr-24 15:30N 38°38' E 121°47'4261107.6
2018-Apr-24 15:07N 31°32' E 121°20'1 6.4
2018-Apr-24 14:56N 31°33' E 121°19'4254297.4
2018-Apr-24 14:50N 38°38' E 121°45'1 1.9
2018-Apr-24 14:29N 38°38' E 121°46'4172408.5
2018-Apr-24 14:19N 31°41' E 121°15'2 6.3
2018-Apr-24 14:00N 31°40' E 121°16'522.9
2018-Apr-24 13:47N 31°42' E 121°10'2 8.4
2018-Apr-24 13:30N 31°40' E 121°12'6114.6
2018-Apr-24 13:27N 31°36' E 121°17'511.9
2018-Apr-24 13:02N 31°39' E 121°13'8238.9
2018-Apr-24 13:00N 31°34' E 121°19'4205.0
2018-Apr-24 12:59N 31°37' E 121°16'488.9
2018-Apr-24 12:57N 31°39' E 121°13'716.8
2018-Apr-24 12:30N 31°34' E 121°19'461.6
2018-Apr-24 12:26N 31°32' E 121°23'0 0.1
2018-Apr-24 12:00N 31°32' E 121°23'3 1.6
2018-Apr-24 09:55N 31°34' E 121°20'663.8
2018-Apr-24 09:50N 31°38' E 121°15'2 4.7
2018-Apr-24 09:30N 31°37' E 121°17'3731487.7
2018-Apr-24 09:15N 37°49' E 121°39'1 5.9
2018-Apr-24 09:00N 37°49' E 121°40'374122301.0
2018-Apr-24 09:00N 31°35' E 121°18'2 4.5
2018-Apr-24 08:30N 31°34' E 121°20'52289.9
2018-Apr-24 08:19N 31°59' E 120°27'3543421.4
2018-Apr-24 08:13N 37°46' E 121°45'3751782.4
2018-Apr-24 08:00N 31°32' E 121°22'5464710.0
2018-Apr-24 08:00N 31°59' E 120°27'0 0.1
2018-Apr-24 07:29N 31°59' E 120°27'406566.4
2018-Apr-24 06:46N 38°38' E 121°51'4063195.0
2018-Apr-24 06:38N 31°59' E 120°27'0 0.0
2018-Apr-24 06:28N 31°59' E 120°27'0 0.0
2018-Apr-24 05:57N 31°59' E 120°27'9542078.3
2018-Apr-24 05:30N 19°44' E 109°11'954686684.8
2018-Apr-24 05:30N 31°59' E 120°27'0 0.0
2018-Apr-24 05:00N 31°59' E 120°27'404974.3
2018-Apr-24 04:35N 38°37' E 121°45'4045228.8
2018-Apr-24 04:30N 31°59' E 120°27'40410233.4
2018-Apr-24 04:28N 38°37' E 121°44'404880.2
2018-Apr-24 04:01N 31°59' E 120°27'403770.3
2018-Apr-24 03:29N 38°37' E 121°42'4542314.1
2018-Apr-24 03:17N 31°04' E 121°01'2 5.9
2018-Apr-24 03:00N 31°05' E 120°59'3 6.3
2018-Apr-24 02:30N 31°06' E 120°56'3314.8
2018-Apr-24 00:16N 31°33' E 121°20'1 3.1
2018-Apr-23 23:55N 31°33' E 121°19'38170.1
2018-Apr-23 18:29N 25°13' E 121°41'41382.7
2018-Apr-23 13:30N 32°00' E 120°27'4469.6
2018-Apr-23 12:52N 31°40' E 121°13'34107.3
2018-Apr-23 12:32N 31°08' E 121°28'33895.7
2018-Apr-23 12:30N 31°39' E 121°15'3 5.7
2018-Apr-23 12:00N 31°37' E 121°17'3 5.5
2018-Apr-23 11:30N 31°34' E 121°19'52126.4
2018-Apr-23 11:05N 31°58' E 120°25'54536.0
2018-Apr-23 10:59N 31°32' E 121°21'541617.0
2018-Apr-23 10:57N 31°58' E 120°25'71342.1
2018-Apr-23 10:45N 31°14' E 121°30'1767.1
2018-Apr-23 10:29N 31°31' E 121°24'16216.4
2018-Apr-23 10:25N 31°15' E 121°30'2858.3
2018-Apr-23 09:56N 31°39' E 121°14'3 6.2
2018-Apr-23 09:30N 31°37' E 121°16'4441321.6
2018-Apr-23 09:10N 39°00' E 121°41'0 0.0
2018-Apr-23 08:58N 39°00' E 121°41'0 0.0
2018-Apr-23 08:16N 39°00' E 121°41'23356521.7
2018-Apr-23 07:55N 00°05' E 121°23'23359752.3
2018-Apr-23 07:41N 39°00' E 121°41'0 0.0
2018-Apr-23 07:30N 39°00' E 121°41'233572469.8
2018-Apr-23 07:28N 00°05' E 121°23'0 0.0
2018-Apr-23 06:57N 00°05' E 121°23'233522239.4
2018-Apr-23 06:51N 39°00' E 121°41'23356774.0
2018-Apr-23 06:30N 00°05' E 121°23'233538739.6
2018-Apr-23 06:26N 39°00' E 121°41'23354768.3
2018-Apr-23 05:57N 00°05' E 121°23'2335147482.3
2018-Apr-23 05:56N 39°00' E 121°41'23355381.9
2018-Apr-23 05:30N 00°05' E 121°23'0 0.0
2018-Apr-23 04:57N 00°05' E 121°23'184756358.7
2018-Apr-23 04:55N 30°52' E 122°16'18474430.6
2018-Apr-23 04:30N 00°05' E 121°23'19147504.0
2018-Apr-23 04:15N 31°58' E 120°25'19147810.3
2018-Apr-23 04:00N 00°05' E 121°23'191438918.9
2018-Apr-23 03:57N 31°58' E 120°25'19144169.9
2018-Apr-23 03:29N 00°05' E 121°23'191460961.7
2018-Apr-23 03:28N 31°58' E 120°25'19144083.4
2018-Apr-23 02:59N 00°05' E 121°23'191411128.7
2018-Apr-23 02:49N 31°58' E 120°25'4662484.1
2018-Apr-23 02:38N 24°29' E 118°04'1 5.1
2018-Apr-23 02:29N 24°29' E 118°04'147722152.5
2018-Apr-23 02:25N 00°05' E 121°23'233511563.3
2018-Apr-23 02:13N 39°00' E 121°41'23359424.3
2018-Apr-23 01:58N 00°05' E 121°23'233557187.0
2018-Apr-23 01:56N 39°00' E 121°41'4735129.6
2018-Apr-23 01:50N 31°08' E 121°55'18625075.5
2018-Apr-23 01:28N 00°05' E 121°23'1893296272.2
2018-Apr-23 01:28N 31°38' E 121°14'44311069.9
2018-Apr-23 01:26N 39°00' E 121°41'4431059.2
2018-Apr-23 01:01N 31°38' E 121°14'189353655.4
2018-Apr-23 00:58N 00°05' E 121°23'233514248.3
2018-Apr-23 00:49N 39°00' E 121°41'42746564.0
2018-Apr-23 00:48N 31°58' E 120°25'46152.1
2018-Apr-23 00:30N 31°38' E 121°14'189375713.8
2018-Apr-23 00:28N 00°05' E 121°23'1853370604.9
2018-Apr-23 00:28N 30°58' E 122°13'1101221.4
2018-Apr-23 00:23N 31°58' E 120°25'107287.6
2018-Apr-23 00:00N 30°60' E 122°10'615389.6
2018-Apr-23 00:00N 31°38' E 121°14'189384126.4
2018-Apr-22 23:58N 00°05' E 121°23'18933918.5
2018-Apr-22 23:29N 31°38' E 121°14'574213.0
2018-Apr-22 23:29N 31°02' E 122°06'1857557032.2
2018-Apr-22 23:28N 00°05' E 121°23'19148370.2
2018-Apr-22 23:15N 31°58' E 120°25'19147058.1
2018-Apr-22 22:58N 00°05' E 121°23'1914156561.2
2018-Apr-22 22:58N 31°58' E 120°25'461922.6
2018-Apr-22 22:56N 31°38' E 121°14'18933626.5
2018-Apr-22 22:25N 00°05' E 121°23'189353655.3
2018-Apr-22 22:23N 31°38' E 121°14'727.3
2018-Apr-22 22:06N 31°33' E 121°20'774.5
2018-Apr-22 22:00N 31°38' E 121°14'35520621.3
2018-Apr-22 21:59N 37°33' E 121°23'36013370.4
2018-Apr-22 21:58N 31°33' E 121°19'714.6
2018-Apr-22 21:30N 31°38' E 121°14'1151.0
2018-Apr-22 21:17N 31°30' E 121°23'1140.9
2018-Apr-22 21:00N 31°38' E 121°14'538836391.3
2018-Apr-22 20:52N 49°18' W 123°02'538715767.9
2018-Apr-22 20:31N 31°40' E 121°13'285.9
2018-Apr-22 20:30N 31°38' E 121°14'5385842919.8
2018-Apr-22 20:30N 49°18' W 123°06'538593195.8
2018-Apr-22 20:26N 31°39' E 121°14'2 6.0
2018-Apr-22 20:09N 31°38' E 121°15'890.0
2018-Apr-22 20:04N 31°43' E 121°08'1865959.7
2018-Apr-22 20:04N 31°30' E 121°23'11202.2
2018-Apr-22 20:00N 31°38' E 121°14'7249.3
2018-Apr-22 19:59N 31°43' E 121°08'5383161487.2
2018-Apr-22 19:57N 49°19' W 123°09'538214320.2
2018-Apr-22 19:34N 31°34' E 121°19'679.3
2018-Apr-22 19:30N 31°38' E 121°14'5381146767.6
2018-Apr-22 19:28N 49°17' W 123°11'53814843216.1
2018-Apr-22 19:28N 31°41' E 121°11'101144.0
2018-Apr-22 19:27N 31°34' E 121°19'647.3
2018-Apr-22 19:19N 31°38' E 121°15'2 7.1
2018-Apr-22 19:00N 31°40' E 121°13'3259.0
2018-Apr-22 19:00N 31°38' E 121°15'5381624945.6
2018-Apr-22 18:59N 49°17' W 123°11'538135221.5
2018-Apr-22 18:50N 31°36' E 121°18'7451.0
2018-Apr-22 18:49N 31°31' E 121°24'824.7
2018-Apr-22 18:30N 31°36' E 121°17'5381484259.7
2018-Apr-22 18:30N 49°17' W 123°11'5382509832.6
2018-Apr-22 18:29N 31°39' E 121°13'4429249.4
2018-Apr-22 18:26N 39°00' E 121°41'44730365.1
2018-Apr-22 18:25N 31°34' E 121°19'52421.2
2018-Apr-22 18:18N 31°58' E 120°25'52177.7
2018-Apr-22 18:00N 31°34' E 121°19'53801760628.8
2018-Apr-22 18:00N 49°17' W 123°13'5380265306.4
2018-Apr-22 17:59N 31°32' E 121°22'11467.8
2018-Apr-22 17:58N 31°39' E 121°13'1022.8
2018-Apr-22 17:30N 31°32' E 121°22'53801383457.5
2018-Apr-22 17:30N 49°17' W 123°12'53813228392.6
2018-Apr-22 17:30N 31°38' E 121°14'719.3
2018-Apr-22 17:08N 31°33' E 121°20'537.4
2018-Apr-22 17:00N 31°31' E 121°25'108665.0
2018-Apr-22 17:00N 31°37' E 121°16'4682374.1
2018-Apr-22 16:49N 24°11' E 118°39'5878104753.8
2018-Apr-22 16:45N 49°17' W 123°12'538142762.0
2018-Apr-22 16:38N 31°30' E 121°23'433.2
2018-Apr-22 16:30N 31°29' E 121°27'46029054.7
2018-Apr-22 16:30N 24°13' E 118°41'46428321.9
2018-Apr-22 16:29N 31°36' E 121°18'799.1
2018-Apr-22 16:25N 31°30' E 121°23'538134590.0
2018-Apr-22 16:15N 49°17' W 123°12'538021497.5
2018-Apr-22 16:00N 31°34' E 121°20'5380222627.2
2018-Apr-22 15:59N 49°17' W 123°13'538031858.0
2018-Apr-22 15:49N 31°30' E 121°23'537817567.4
2018-Apr-22 15:30N 49°17' W 123°16'53774839211.2
2018-Apr-22 15:30N 31°32' E 121°22'210.8
2018-Apr-22 15:19N 31°30' E 121°23'416.4
2018-Apr-22 15:06N 31°33' E 121°20'443.1
2018-Apr-22 15:00N 31°31' E 121°24'5374235936.7
2018-Apr-22 14:59N 49°16' W 123°20'537627844.7
2018-Apr-22 14:47N 31°30' E 121°23'537519009.4
2018-Apr-22 14:30N 49°15' W 123°20'53741381797.8
2018-Apr-22 14:30N 31°30' E 121°26'323.7
2018-Apr-22 14:23N 31°30' E 121°23'537412106.6
2018-Apr-22 13:56N 49°15' W 123°22'537356886.9
2018-Apr-22 13:51N 31°30' E 121°25'537115129.0
2018-Apr-22 13:29N 49°16' W 123°25'53723867632.4
2018-Apr-22 13:29N 31°31' E 121°22'2 4.9
2018-Apr-22 13:02N 31°30' E 121°24'6216.0
2018-Apr-22 13:00N 31°34' E 121°18'5369178961.5
2018-Apr-22 12:58N 49°16' W 123°29'5369136115.7
2018-Apr-22 12:56N 31°30' E 121°23'1021.5
2018-Apr-22 12:28N 31°38' E 121°16'5362410739.8
2018-Apr-22 12:27N 49°17' W 123°34'536111811.6
2018-Apr-22 12:00N 31°41' E 121°14'1342.1
2018-Apr-22 11:41N 31°30' E 121°23'0 1.2
2018-Apr-22 11:31N 31°30' E 121°23'3 6.1
2018-Apr-22 10:58N 31°33' E 121°20'5101128.0
2018-Apr-22 10:31N 23°45' E 117°31'0 0.0
2018-Apr-22 10:23N 23°45' E 117°31'5122734.2
2018-Apr-22 10:11N 31°36' E 121°17'3430.7
2018-Apr-22 09:04N 31°06' E 120°58'1 6.3
2018-Apr-22 08:59N 31°06' E 120°57'429619.6
2018-Apr-22 08:17N 24°17' E 118°30'3 8.9
2018-Apr-22 08:00N 24°16' E 118°27'4661912.7
2018-Apr-22 07:45N 31°39' E 121°13'4701725.1
2018-Apr-22 07:29N 24°13' E 118°23'4704339.4
2018-Apr-22 07:23N 31°39' E 121°13'728.2
2018-Apr-22 07:08N 31°34' E 121°20'1 5.4
2018-Apr-22 07:00N 31°34' E 121°20'47211969.4
2018-Apr-22 06:58N 24°09' E 118°20'4731858.3
2018-Apr-22 06:43N 31°35' E 121°19'1 5.1
2018-Apr-22 06:30N 31°34' E 121°20'4784126.3
2018-Apr-22 06:23N 24°04' E 118°17'4771198.0
2018-Apr-22 05:59N 31°32' E 121°22'3 4.9
2018-Apr-22 05:28N 31°31' E 121°24'45024911.0
2018-Apr-22 05:27N 39°00' E 121°41'0 0.0
2018-Apr-22 04:59N 39°00' E 121°41'0 0.0
2018-Apr-22 04:24N 39°00' E 121°41'0 0.0
2018-Apr-22 03:46N 39°00' E 121°41'0 0.0
2018-Apr-22 03:27N 39°00' E 121°41'0 0.0
2018-Apr-22 02:59N 39°00' E 121°41'4973344306.7
2018-Apr-22 02:58N 49°20' W 123°39'2 3.3
2018-Apr-22 02:28N 49°19' W 123°38'497563739.0
2018-Apr-22 02:24N 39°00' E 121°41'497712289.4
2018-Apr-22 01:59N 49°19' W 123°35'4977215878.6
2018-Apr-22 01:58N 39°00' E 121°41'498110827.4
2018-Apr-22 01:30N 49°19' W 123°31'4981407502.6
2018-Apr-22 01:30N 39°00' E 121°41'4451303.2
2018-Apr-22 01:09N 31°36' E 121°17'536934765.8
2018-Apr-22 01:00N 49°18' W 123°26'536815508.4
2018-Apr-22 00:39N 31°39' E 121°16'537125439.9
2018-Apr-22 00:26N 49°18' W 123°22'5953155308.5
2018-Apr-22 00:24N 23°34' E 117°31'819.7
2018-Apr-22 00:00N 23°41' E 117°32'5950184652.4
2018-Apr-21 23:58N 49°18' W 123°18'3 5.7
2018-Apr-21 23:29N 49°18' W 123°14'1 2.7
2018-Apr-21 22:59N 49°17' W 123°12'1 1.1
2018-Apr-21 22:29N 49°18' W 123°12'1 1.9
2018-Apr-21 21:58N 49°17' W 123°11'568513126.8
2018-Apr-21 21:32N 25°13' E 121°41'1 8.5
2018-Apr-21 21:28N 25°14' E 121°41'5681681671.5
2018-Apr-21 21:28N 49°19' W 123°15'2 3.7
2018-Apr-21 20:47N 49°21' W 123°17'1 1.8
2018-Apr-21 20:29N 49°21' W 123°17'3 5.8
2018-Apr-21 19:59N 49°20' W 123°21'537311609.4
2018-Apr-21 19:31N 31°40' E 121°12'5373471783.4
2018-Apr-21 19:30N 49°21' W 123°20'537317238.7
2018-Apr-21 19:12N 31°39' E 121°14'537528538.2
2018-Apr-21 19:00N 49°20' W 123°18'5375230340.7
2018-Apr-21 18:59N 31°38' E 121°16'4 6.9
2018-Apr-21 18:28N 31°35' E 121°18'5378379599.8
2018-Apr-21 18:27N 49°19' W 123°14'2 4.3
2018-Apr-21 18:00N 49°18' W 123°12'5380412067.4
2018-Apr-21 18:00N 31°33' E 121°21'538110539.9
2018-Apr-21 17:29N 49°17' W 123°11'2 4.2
2018-Apr-21 16:59N 49°18' W 123°10'3 5.7
2018-Apr-21 16:30N 49°18' W 123°06'58082114.9
2018-Apr-21 13:45N 24°24' E 120°01'428647.0
2018-Apr-21 13:05N 31°24' E 121°35'7180.1
2018-Apr-21 12:12N 32°01' E 120°23'2 7.4
2018-Apr-21 11:58N 32°01' E 120°25'4 7.1
2018-Apr-21 11:21N 32°02' E 120°30'5 6.0
2018-Apr-21 10:26N 31°58' E 120°26'0 0.1
2018-Apr-21 09:28N 31°58' E 120°26'49173.5
2018-Apr-21 09:11N 31°37' E 121°17'1 7.2
2018-Apr-21 09:00N 31°36' E 121°18'4 7.8
2018-Apr-21 08:28N 31°33' E 121°21'6752659.4
2018-Apr-21 08:13N 22°18' E 114°09'6773016.0
2018-Apr-21 08:00N 31°41' E 121°12'67793733.7
2018-Apr-21 07:59N 22°18' E 114°09'107524495.3
2018-Apr-21 07:57N 39°00' E 121°41'10752464.0
2018-Apr-21 07:30N 22°17' E 114°10'67043862.2
2018-Apr-21 07:30N 31°58' E 120°26'47775.0
2018-Apr-21 07:26N 31°38' E 121°15'4262143.7
2018-Apr-21 07:14N 38°44' E 121°32'4281616.2
2018-Apr-21 06:58N 31°36' E 121°18'42722943.7
2018-Apr-21 06:57N 38°43' E 121°36'4262807.9
2018-Apr-21 06:48N 31°37' E 121°17'516.1
2018-Apr-21 06:30N 31°34' E 121°20'42832103.7
2018-Apr-21 06:29N 38°41' E 121°42'196263.7
2018-Apr-21 06:29N 39°00' E 121°41'4471466.8
2018-Apr-21 06:11N 31°34' E 121°20'420.9
2018-Apr-21 05:59N 31°32' E 121°23'44952139.2
2018-Apr-21 05:59N 39°00' E 121°41'447536931.8
2018-Apr-21 05:59N 31°33' E 121°21'4281910.1
2018-Apr-21 05:45N 38°41' E 121°45'1 2.6
2018-Apr-21 05:30N 38°41' E 121°46'201016.6
2018-Apr-21 05:29N 39°00' E 121°41'2027.9
2018-Apr-21 04:46N 38°41' E 121°48'2035.6
2018-Apr-21 04:12N 39°00' E 121°41'0 0.0
2018-Apr-21 03:53N 39°00' E 121°41'211468.8
2018-Apr-21 03:52N 38°41' E 121°51'21 6.5
2018-Apr-21 00:41N 39°00' E 121°41'0 0.0
2018-Apr-21 00:20N 39°00' E 121°41'0 0.0
2018-Apr-20 23:59N 39°00' E 121°41'93413402.4
2018-Apr-20 23:55N 23°33' E 119°31'916435.0
2018-Apr-20 21:48N 38°41' E 121°51'1 1.9
2018-Apr-20 21:30N 38°41' E 121°51'2 2.1
2018-Apr-20 20:34N 38°40' E 121°48'0 1.3
2018-Apr-20 20:25N 38°40' E 121°48'1 0.7
2018-Apr-20 19:39N 38°41' E 121°49'1 1.9
2018-Apr-20 19:13N 38°41' E 121°50'1 2.0
2018-Apr-20 18:39N 38°41' E 121°51'0 1.9
2018-Apr-20 18:26N 38°42' E 121°51'423805.2
2018-Apr-20 17:54N 31°39' E 121°13'4248626.5
2018-Apr-20 17:51N 38°42' E 121°53'1 1.3
2018-Apr-20 17:27N 38°43' E 121°53'4272900.6
2018-Apr-20 17:19N 31°37' E 121°17'3 6.5
2018-Apr-20 16:54N 31°34' E 121°19'2 6.1
2018-Apr-20 16:30N 31°33' E 121°21'4 2.7
2018-Apr-20 15:06N 31°30' E 121°24'0 0.0
2018-Apr-20 14:54N 31°30' E 121°24'0 0.0
2018-Apr-20 14:09N 31°30' E 121°24'0 0.0
2018-Apr-20 14:01N 31°30' E 121°24'0 0.0
2018-Apr-20 13:20N 31°30' E 121°24'0 0.0
2018-Apr-20 12:41N 31°30' E 121°24'0 0.0
2018-Apr-20 12:29N 31°30' E 121°24'0 0.0
2018-Apr-20 12:00N 31°30' E 121°24'0 0.1
2018-Apr-20 10:37N 31°30' E 121°24'1834.4
2018-Apr-20 10:06N 31°42' E 121°09'1 7.8
2018-Apr-20 09:57N 31°41' E 121°10'424545.3
2018-Apr-20 09:10N 38°45' E 121°45'0 1.5
2018-Apr-20 08:55N 38°45' E 121°45'1 1.5
2018-Apr-20 08:24N 38°45' E 121°44'42111070.2
2018-Apr-20 08:22N 31°45' E 121°06'4211150.4
2018-Apr-20 08:00N 38°45' E 121°44'42340082.3
2018-Apr-20 08:00N 31°43' E 121°08'423863.9
2018-Apr-20 07:30N 38°45' E 121°44'42766810.4
2018-Apr-20 07:30N 31°39' E 121°13'2847.5
2018-Apr-20 07:30N 31°41' E 121°12'3 6.7
2018-Apr-20 07:00N 31°39' E 121°15'4277879.0
2018-Apr-20 06:57N 38°45' E 121°44'4274390.2
2018-Apr-20 06:51N 31°39' E 121°13'412.0
2018-Apr-20 06:30N 31°36' E 121°18'483.5
2018-Apr-20 06:27N 31°39' E 121°13'4278882.4
2018-Apr-20 06:24N 38°45' E 121°44'4261379.3
2018-Apr-20 06:06N 31°39' E 121°16'4264582.7
2018-Apr-20 06:00N 38°45' E 121°44'427384622.4
2018-Apr-20 06:00N 31°38' E 121°15'218.0
2018-Apr-20 05:55N 31°38' E 121°17'4281030.1
2018-Apr-20 05:30N 38°45' E 121°45'4348673.4
2018-Apr-20 05:27N 31°32' E 121°23'10944.1
2018-Apr-20 05:26N 31°39' E 121°15'5156.6
2018-Apr-20 05:24N 31°35' E 121°19'024.9
2018-Apr-20 05:24N 31°35' E 121°19'1245.8
2018-Apr-20 05:08N 31°43' E 121°08'20164.8
2018-Apr-20 05:00N 31°30' E 121°26'43511866.7
2018-Apr-20 04:58N 38°45' E 121°47'43377988.7
2018-Apr-20 04:58N 31°32' E 121°19'5177.1
2018-Apr-20 04:56N 31°36' E 121°17'987.9
2018-Apr-20 04:50N 31°42' E 121°09'155500.2
2018-Apr-20 04:50N 31°32' E 121°22'3 6.9
2018-Apr-20 04:28N 31°32' E 121°19'48779656.0
2018-Apr-20 04:28N 23°34' E 119°35'91873443.2
2018-Apr-20 04:27N 38°45' E 121°48'43815753.2
2018-Apr-20 04:25N 31°28' E 121°28'20251.3
2018-Apr-20 04:21N 31°41' E 121°11'1230.7
2018-Apr-20 03:58N 31°32' E 121°19'10371.5
2018-Apr-20 03:56N 31°40' E 121°12'4411044.8
2018-Apr-20 03:31N 39°00' E 121°40'4772457.6
2018-Apr-20 03:19N 31°05' E 120°59'476856808.2
2018-Apr-20 03:19N 38°60' E 121°41'44826039.3
2018-Apr-20 03:18N 31°32' E 121°19'32107.7
2018-Apr-20 03:00N 31°06' E 120°57'32197.9
2018-Apr-20 02:50N 31°32' E 121°19'433831.6
2018-Apr-20 02:19N 38°44' E 121°50'4272865.9
2018-Apr-20 02:10N 31°39' E 121°13'4262336.3
2018-Apr-20 01:59N 38°44' E 121°50'4331614.6
2018-Apr-20 01:43N 31°32' E 121°19'8303.1
2018-Apr-20 01:42N 31°39' E 121°13'14134.8
2018-Apr-20 01:35N 31°28' E 121°25'4364105.8
2018-Apr-20 01:29N 38°44' E 121°48'4495299.2
2018-Apr-20 01:24N 31°15' E 121°30'19609.4
2018-Apr-20 01:22N 31°32' E 121°19'8110.6
2018-Apr-20 01:17N 31°39' E 121°13'2681.9
2018-Apr-20 00:58N 31°13' E 121°09'269351.1
2018-Apr-20 00:58N 31°39' E 121°13'42661284.5
2018-Apr-20 00:58N 38°43' E 121°48'4324082.4
2018-Apr-20 00:51N 31°32' E 121°19'2263.1
2018-Apr-20 00:30N 31°11' E 121°09'4536906.9
2018-Apr-20 00:26N 38°43' E 121°42'4322217.8
2018-Apr-20 00:15N 31°32' E 121°19'4321797.8
2018-Apr-20 00:00N 38°44' E 121°37'4552962.4
2018-Apr-19 23:51N 31°09' E 121°10'3063.1
2018-Apr-19 23:23N 31°39' E 121°13'0 0.2
2018-Apr-19 21:49N 31°39' E 121°13'9476.9
2018-Apr-19 21:48N 31°32' E 121°19'0 0.0
2018-Apr-19 21:30N 31°32' E 121°19'939.8
2018-Apr-19 21:17N 31°39' E 121°13'0 0.1
2018-Apr-19 21:01N 31°39' E 121°13'1726.9
2018-Apr-19 20:22N 31°27' E 121°28'17215.7
2018-Apr-19 20:17N 31°39' E 121°13'972.8
2018-Apr-19 20:10N 31°32' E 121°19'939.3
2018-Apr-19 19:57N 31°39' E 121°13'9236.2
2018-Apr-19 19:55N 31°32' E 121°19'691.5
2018-Apr-19 19:51N 31°29' E 121°25'2 6.3
2018-Apr-19 19:30N 31°30' E 121°23'443.6
2018-Apr-19 19:25N 31°32' E 121°19'980.4
2018-Apr-19 19:18N 31°39' E 121°13'1033.5
2018-Apr-19 19:00N 31°31' E 121°21'1079.0
2018-Apr-19 18:52N 31°39' E 121°13'823.0
2018-Apr-19 18:30N 31°33' E 121°20'8403.1
2018-Apr-19 18:29N 31°39' E 121°13'497.9
2018-Apr-19 18:27N 31°42' E 121°10'1125.3
2018-Apr-19 18:00N 31°34' E 121°19'71213.4
2018-Apr-19 18:00N 31°39' E 121°13'9133.2
2018-Apr-19 17:56N 31°32' E 121°19'20415.2
2018-Apr-19 17:53N 31°14' E 121°30'2459.6
2018-Apr-19 17:29N 31°36' E 121°17'111.3
2018-Apr-19 17:23N 31°35' E 121°18'2 6.1
2018-Apr-19 17:00N 31°33' E 121°20'5523.0
2018-Apr-19 16:59N 31°37' E 121°16'734.1
2018-Apr-19 16:47N 31°32' E 121°22'1036.3
2018-Apr-19 16:31N 31°39' E 121°13'121001.5
2018-Apr-19 16:30N 31°30' E 121°23'1155.9
2018-Apr-19 16:29N 31°31' E 121°23'4 1.3
2018-Apr-19 13:47N 31°28' E 121°25'218.6
2018-Apr-19 13:42N 31°29' E 121°24'4 5.4
2018-Apr-19 12:53N 31°32' E 121°20'91060.0
2018-Apr-19 12:53N 31°39' E 121°13'0 0.8
2018-Apr-19 12:30N 31°39' E 121°13'6275.5
2018-Apr-19 12:29N 31°34' E 121°18'822.3
2018-Apr-19 12:07N 31°28' E 121°25'1184.2
2018-Apr-19 11:59N 31°36' E 121°16'111099.5
2018-Apr-19 11:58N 31°28' E 121°25'1430.0
2018-Apr-19 11:29N 31°39' E 121°14'14537.9
2018-Apr-19 11:28N 31°28' E 121°25'5061650.0
2018-Apr-19 11:09N 23°17' E 119°10'5052633.6
2018-Apr-19 10:58N 31°26' E 121°28'350.2
2018-Apr-19 10:54N 31°28' E 121°25'50612061.3
2018-Apr-19 10:51N 23°17' E 119°10'5061368.8
2018-Apr-19 10:29N 31°28' E 121°26'16774.5
2018-Apr-19 10:28N 31°40' E 121°13'1429.5
2018-Apr-19 10:00N 31°30' E 121°24'14119.9
2018-Apr-19 09:53N 31°40' E 121°13'1125.4
2018-Apr-19 09:28N 31°31' E 121°21'1159.9
2018-Apr-19 09:16N 31°40' E 121°13'16205.5
2018-Apr-19 09:12N 31°28' E 121°25'733.4
2018-Apr-19 09:00N 31°33' E 121°19'7214.4
2018-Apr-19 08:58N 31°28' E 121°25'1680.8
2018-Apr-19 08:46N 31°40' E 121°13'726.9
2018-Apr-19 08:30N 31°34' E 121°18'754.0
2018-Apr-19 08:22N 31°40' E 121°13'615.5
2018-Apr-19 08:00N 31°35' E 121°17'1 2.3
2018-Apr-19 07:26N 31°36' E 121°16'1156.6
2018-Apr-19 07:14N 31°28' E 121°25'1252.8
2018-Apr-19 07:00N 31°37' E 121°16'1 2.5
2018-Apr-19 06:30N 31°38' E 121°14'35129.4
2018-Apr-19 06:13N 31°06' E 120°58'379474.5
2018-Apr-19 06:13N 31°40' E 121°13'1 3.5
2018-Apr-19 06:00N 31°39' E 121°14'1202.6
2018-Apr-19 05:59N 31°40' E 121°13'1419.6
2018-Apr-19 05:59N 31°39' E 121°13'1 1.4
2018-Apr-19 05:30N 31°39' E 121°13'1151.4
2018-Apr-19 05:29N 31°40' E 121°13'1 2.1
2018-Apr-19 04:57N 31°39' E 121°13'1 2.3
2018-Apr-19 04:29N 31°40' E 121°12'0 0.6
2018-Apr-19 03:59N 31°40' E 121°13'16444.0
2018-Apr-19 03:57N 31°28' E 121°25'538849609.2
2018-Apr-19 03:50N 49°18' W 123°02'3 7.3
2018-Apr-19 03:30N 49°18' W 123°06'538514899.6
2018-Apr-19 03:08N 31°40' E 121°13'0 0.0
2018-Apr-19 03:00N 31°40' E 121°13'1652.9
2018-Apr-19 02:42N 31°28' E 121°25'1653.3
2018-Apr-19 02:23N 31°40' E 121°12'1780.3
2018-Apr-19 02:11N 31°28' E 121°26'538356499.0
2018-Apr-19 02:05N 49°18' W 123°08'538367059.4
2018-Apr-19 02:00N 31°29' E 121°25'5384145724.4
2018-Apr-19 01:58N 49°18' W 123°07'538411462.7
2018-Apr-19 01:30N 31°30' E 121°23'53821210944.3
2018-Apr-19 01:30N 49°19' W 123°10'538210371.9
2018-Apr-19 00:59N 31°30' E 121°23'5381372545.2
2018-Apr-19 00:58N 49°17' W 123°12'498843902.9
2018-Apr-19 00:51N 38°51' E 122°01'498812992.6
2018-Apr-19 00:28N 49°17' W 123°12'4996108339.3
2018-Apr-19 00:25N 38°50' E 121°51'4412937.4
2018-Apr-19 00:16N 31°30' E 121°23'22111.7
2018-Apr-19 00:05N 31°12' E 121°09'540849039.7
2018-Apr-18 23:58N 49°17' W 123°09'538333995.3
2018-Apr-18 23:48N 31°30' E 121°23'538217024.2
2018-Apr-18 23:29N 49°18' W 123°11'5382121846.1
2018-Apr-18 23:27N 31°30' E 121°23'13296.1
2018-Apr-18 23:24N 31°40' E 121°13'538113322.8
2018-Apr-18 23:00N 49°19' W 123°10'538223399.7
2018-Apr-18 22:46N 31°30' E 121°23'538520556.3
2018-Apr-18 22:31N 49°18' W 123°06'538547050.0
2018-Apr-18 22:24N 31°30' E 121°23'13124.0
2018-Apr-18 22:18N 31°40' E 121°13'1653.6
2018-Apr-18 22:00N 31°28' E 121°26'3736.2
2018-Apr-18 22:00N 31°30' E 121°23'13182.8
2018-Apr-18 21:55N 31°40' E 121°13'538321723.1
2018-Apr-18 21:41N 49°18' W 123°08'538430379.9
2018-Apr-18 21:30N 31°31' E 121°22'142.9
2018-Apr-18 21:29N 31°30' E 121°23'13734.3
2018-Apr-18 21:28N 31°40' E 121°13'961.7
2018-Apr-18 21:20N 31°34' E 121°20'53834844821.3
2018-Apr-18 21:20N 49°18' W 123°08'538228286.0
2018-Apr-18 21:08N 31°30' E 121°25'643.0
2018-Apr-18 21:00N 31°33' E 121°19'92870.3
2018-Apr-18 20:59N 31°40' E 121°13'13292.9
2018-Apr-18 20:57N 31°30' E 121°23'2515.8
2018-Apr-18 20:57N 31°32' E 121°22'5383298128.4
2018-Apr-18 20:56N 49°18' W 123°08'538312568.3
2018-Apr-18 20:30N 31°32' E 121°21'5912.0
2018-Apr-18 20:30N 31°35' E 121°17'7720.7
2018-Apr-18 20:29N 31°30' E 121°23'5384807534.4
2018-Apr-18 20:29N 49°18' W 123°08'538325905.2
2018-Apr-18 20:16N 31°40' E 121°13'0 0.0
2018-Apr-18 20:00N 31°40' E 121°13'7967.9
2018-Apr-18 20:00N 31°34' E 121°18'5927.9
2018-Apr-18 20:00N 31°30' E 121°23'9552.2
2018-Apr-18 19:59N 31°37' E 121°15'538315320.2
2018-Apr-18 19:38N 49°18' W 123°08'538444553.5
2018-Apr-18 19:30N 31°39' E 121°13'12624.2
2018-Apr-18 19:29N 31°30' E 121°23'538433530.8
2018-Apr-18 19:20N 49°18' W 123°08'5383191852.1
2018-Apr-18 19:18N 31°40' E 121°13'538418148.5
2018-Apr-18 19:00N 49°18' W 123°06'53851292422.4
2018-Apr-18 19:00N 31°30' E 121°23'1380.4
2018-Apr-18 18:50N 31°40' E 121°12'1171.6
2018-Apr-18 18:49N 31°40' E 121°13'1339.1
2018-Apr-18 18:30N 31°30' E 121°23'10835.2
2018-Apr-18 18:29N 31°38' E 121°15'3948.1
2018-Apr-18 18:29N 31°40' E 121°13'715.4
2018-Apr-18 18:00N 31°35' E 121°19'579.4
2018-Apr-18 17:56N 31°30' E 121°23'434.0
2018-Apr-18 17:49N 31°34' E 121°20'411.2
2018-Apr-18 17:30N 31°31' E 121°22'017.2
2018-Apr-18 17:28N 31°30' E 121°23'2 5.3
2018-Apr-18 17:00N 31°29' E 121°25'102352.3
2018-Apr-18 16:59N 31°37' E 121°18'8199.7
2018-Apr-18 16:57N 31°30' E 121°23'356.7
2018-Apr-18 16:54N 31°28' E 121°25'1666.5
2018-Apr-18 16:39N 31°40' E 121°13'213.3
2018-Apr-18 16:29N 31°40' E 121°16'263.8
2018-Apr-18 16:27N 31°40' E 121°13'14982.0
2018-Apr-18 16:26N 31°29' E 121°25'214.8
2018-Apr-18 16:19N 31°30' E 121°23'0 0.0
2018-Apr-18 16:00N 31°30' E 121°23'1387.1
2018-Apr-18 15:51N 31°40' E 121°13'16290.1
2018-Apr-18 15:48N 31°28' E 121°25'137.4
2018-Apr-18 15:46N 31°29' E 121°25'2 6.7
2018-Apr-18 15:29N 31°30' E 121°23'3 8.9
2018-Apr-18 15:08N 31°28' E 121°25'0 0.0
2018-Apr-18 14:40N 31°28' E 121°25'5508144.9
2018-Apr-18 14:36N 22°37' E 118°48'2593714.9
2018-Apr-18 14:32N 22°18' E 114°09'1 9.4
2018-Apr-18 14:28N 22°18' E 114°09'67426093.9
2018-Apr-18 14:26N 31°28' E 121°25'55016767.3
2018-Apr-18 14:24N 22°37' E 118°48'5501364.5
2018-Apr-18 14:00N 31°28' E 121°25'325.0
2018-Apr-18 13:52N 31°30' E 121°23'3 7.6
2018-Apr-18 13:28N 31°28' E 121°25'336.7
2018-Apr-18 13:23N 31°30' E 121°23'0 0.0
2018-Apr-18 12:59N 31°30' E 121°23'3119.4
2018-Apr-18 12:58N 31°28' E 121°25'0 0.0
2018-Apr-18 12:30N 31°28' E 121°25'314.9
2018-Apr-18 12:17N 31°30' E 121°23'420.4
2018-Apr-18 12:07N 31°33' E 121°20'999.0
2018-Apr-18 12:01N 31°40' E 121°13'1374.9
2018-Apr-18 11:51N 31°30' E 121°23'0 0.0
2018-Apr-18 11:28N 31°30' E 121°23'323.2
2018-Apr-18 11:20N 31°28' E 121°25'3 8.4
2018-Apr-18 10:58N 31°30' E 121°23'357.9
2018-Apr-18 10:55N 31°28' E 121°25'1649.2
2018-Apr-18 10:36N 31°40' E 121°13'13140.3
2018-Apr-18 10:30N 31°30' E 121°23'31388.4
2018-Apr-18 10:30N 31°28' E 121°25'1 7.6
2018-Apr-18 10:21N 31°29' E 121°25'15167.0
2018-Apr-18 10:15N 31°40' E 121°13'1349.4
2018-Apr-18 10:00N 31°30' E 121°23'151.4
2018-Apr-18 09:59N 31°30' E 121°24'14183.8
2018-Apr-18 09:54N 31°40' E 121°13'1331.4
2018-Apr-18 09:30N 31°30' E 121°23'1 7.8
2018-Apr-18 09:21N 31°30' E 121°24'1 3.3
2018-Apr-18 08:58N 31°30' E 121°23'1 5.0
2018-Apr-18 08:44N 31°30' E 121°24'0 0.1
2018-Apr-18 08:30N 31°30' E 121°24'2280.6
2018-Apr-18 08:29N 31°28' E 121°25'16179.1
2018-Apr-18 08:24N 31°40' E 121°13'13463.2
2018-Apr-18 08:23N 31°30' E 121°23'1330.4
2018-Apr-18 07:58N 31°40' E 121°13'14204.9
2018-Apr-18 07:54N 31°30' E 121°24'1 2.1
2018-Apr-18 07:20N 31°30' E 121°23'124.7
2018-Apr-18 07:18N 31°30' E 121°24'52174.8
2018-Apr-18 07:00N 32°00' E 120°34'52244.4
2018-Apr-18 06:47N 31°30' E 121°24'162.7
2018-Apr-18 06:46N 31°30' E 121°23'0 0.0
2018-Apr-18 06:27N 31°30' E 121°23'1 4.0
2018-Apr-18 06:10N 31°30' E 121°24'1 6.1
2018-Apr-18 05:58N 31°30' E 121°23'1 9.2
2018-Apr-18 05:51N 31°30' E 121°24'534.1
2018-Apr-18 05:42N 31°34' E 121°20'420.9
2018-Apr-18 05:30N 31°30' E 121°23'182.7
2018-Apr-18 05:29N 31°30' E 121°24'2 5.9
2018-Apr-18 05:08N 31°28' E 121°25'211.4
2018-Apr-18 04:58N 31°30' E 121°24'123.6
2018-Apr-18 04:55N 31°30' E 121°23'346.1
2018-Apr-18 04:51N 31°28' E 121°25'15247.0
2018-Apr-18 04:47N 31°39' E 121°14'53220385.3
2018-Apr-18 04:45N 23°27' E 117°24'533100955.6
2018-Apr-18 04:45N 31°40' E 121°13'5312021.9
2018-Apr-18 04:29N 23°29' E 117°23'5305943.9
2018-Apr-18 04:24N 31°38' E 121°16'10436.6
2018-Apr-18 04:23N 31°30' E 121°24'14595.5
2018-Apr-18 04:21N 31°40' E 121°13'13108.6
2018-Apr-18 04:14N 31°30' E 121°23'18196.4
2018-Apr-18 04:09N 31°14' E 121°30'5113542.3
2018-Apr-18 04:00N 23°33' E 117°22'526126245.1
2018-Apr-18 04:00N 31°35' E 121°18'6216.1
2018-Apr-18 03:58N 31°30' E 121°23'118.4
2018-Apr-18 03:55N 31°30' E 121°24'220.5
2018-Apr-18 03:49N 31°28' E 121°25'4502890.5
2018-Apr-18 03:39N 38°58' E 121°43'4393218.6
2018-Apr-18 03:31N 31°40' E 121°13'16431.8
2018-Apr-18 03:29N 31°28' E 121°25'6653.1
2018-Apr-18 03:28N 31°33' E 121°21'380.3
2018-Apr-18 03:26N 31°30' E 121°23'4502015.9
2018-Apr-18 03:13N 39°00' E 121°41'4512648.0
2018-Apr-18 03:03N 31°30' E 121°24'113.8
2018-Apr-18 02:57N 31°30' E 121°23'1713.1
2018-Apr-18 02:57N 31°30' E 121°24'45115029.5
2018-Apr-18 02:56N 39°00' E 121°41'4501079.1
2018-Apr-18 02:31N 31°30' E 121°23'188.9
2018-Apr-18 02:30N 31°30' E 121°24'45112781.1
2018-Apr-18 02:28N 39°00' E 121°41'4412133.4
2018-Apr-18 02:15N 31°40' E 121°13'4411771.4
2018-Apr-18 02:00N 39°00' E 121°41'45140579.5
2018-Apr-18 02:00N 31°30' E 121°24'116.3
2018-Apr-18 01:55N 31°30' E 121°23'12732.4
2018-Apr-18 01:54N 31°40' E 121°13'15680.0
2018-Apr-18 01:53N 31°28' E 121°25'4414267.0
2018-Apr-18 01:46N 35°07' E 129°03'4431663.1
2018-Apr-18 01:30N 31°39' E 121°14'112797.4
2018-Apr-18 01:30N 31°30' E 121°23'3127.7
2018-Apr-18 01:29N 31°28' E 121°25'45230727.8
2018-Apr-18 01:28N 39°00' E 121°41'451202900.4
2018-Apr-18 01:28N 31°30' E 121°24'4871605.2
2018-Apr-18 01:10N 23°33' E 119°32'1 7.6
2018-Apr-18 01:00N 23°34' E 119°33'48751545.8
2018-Apr-18 01:00N 31°30' E 121°23'9920.8
2018-Apr-18 00:59N 31°37' E 121°16'44410936.2
2018-Apr-18 00:57N 39°00' E 121°41'45113415.1
2018-Apr-18 00:55N 31°30' E 121°24'0 0.0
2018-Apr-18 00:30N 31°30' E 121°24'486218523.6
2018-Apr-18 00:30N 23°34' E 119°35'933119924.2
2018-Apr-18 00:30N 39°00' E 121°41'44584274.8
2018-Apr-18 00:29N 31°36' E 121°18'71718.3
2018-Apr-18 00:29N 31°30' E 121°23'0 3.4
2018-Apr-18 00:25N 31°30' E 121°23'33321.3
2018-Apr-18 00:18N 31°06' E 120°56'4761569.5
2018-Apr-18 00:00N 39°00' E 121°41'446229454.9
2018-Apr-18 00:00N 31°35' E 121°19'489352438.0
2018-Apr-18 00:00N 23°34' E 119°35'48664747.7
2018-Apr-18 00:00N 31°30' E 121°24'132.4
2018-Apr-17 23:57N 31°30' E 121°23'358.1
2018-Apr-17 23:54N 31°32' E 121°20'44111029.2
2018-Apr-17 23:52N 35°06' E 129°02'4411214.1
2018-Apr-17 23:30N 31°33' E 121°20'488103381.5
2018-Apr-17 23:30N 23°34' E 119°35'48630698.5
2018-Apr-17 23:29N 31°30' E 121°23'119.4
2018-Apr-17 23:25N 31°30' E 121°24'2 5.1
2018-Apr-17 22:57N 31°32' E 121°22'1289.0
2018-Apr-17 22:56N 31°30' E 121°23'110.0
2018-Apr-17 22:49N 31°30' E 121°24'1 3.4
2018-Apr-17 22:30N 31°31' E 121°24'1 9.1
2018-Apr-17 22:22N 31°30' E 121°23'126.1
2018-Apr-17 22:20N 31°30' E 121°24'1 3.4
2018-Apr-17 21:58N 31°30' E 121°23'395.2
2018-Apr-17 21:56N 31°29' E 121°27'2284.9
2018-Apr-17 21:55N 31°30' E 121°24'1 2.7
2018-Apr-17 21:27N 31°30' E 121°23'111.5
2018-Apr-17 21:21N 31°30' E 121°24'5315.8
2018-Apr-17 21:20N 31°27' E 121°29'617.6
2018-Apr-17 20:59N 31°30' E 121°23'119.9
2018-Apr-17 20:56N 31°30' E 121°24'1 2.9
2018-Apr-17 20:29N 31°30' E 121°23'130.5
2018-Apr-17 20:27N 31°30' E 121°24'1656.7
2018-Apr-17 20:10N 31°43' E 121°14'1 5.4
2018-Apr-17 20:00N 31°42' E 121°14'15229.8
2018-Apr-17 19:57N 31°30' E 121°24'111.4
2018-Apr-17 19:50N 31°30' E 121°23'1129.9
2018-Apr-17 19:29N 31°39' E 121°16'12276.5
2018-Apr-17 19:27N 31°30' E 121°24'1 3.5
2018-Apr-17 19:07N 31°30' E 121°23'1 9.8
2018-Apr-17 19:00N 31°30' E 121°24'1829.3
2018-Apr-17 18:59N 31°30' E 121°23'520.3
2018-Apr-17 18:44N 31°34' E 121°19'22113.9
2018-Apr-17 18:33N 31°14' E 121°30'21479.4
2018-Apr-17 18:30N 31°33' E 121°20'41342.2
2018-Apr-17 18:30N 31°30' E 121°24'116.4
2018-Apr-17 18:26N 31°30' E 121°23'17445.7
2018-Apr-17 18:23N 31°14' E 121°29'4664282.0
2018-Apr-17 18:17N 39°00' E 121°41'4511642.8
2018-Apr-17 18:00N 31°30' E 121°24'45131824.4
2018-Apr-17 18:00N 39°00' E 121°41'4501410.7
2018-Apr-17 17:40N 31°30' E 121°23'1 6.6
2018-Apr-17 17:30N 31°30' E 121°24'125.8
2018-Apr-17 17:27N 31°30' E 121°23'45024191.8
2018-Apr-17 17:26N 39°00' E 121°41'0 0.0
2018-Apr-17 16:58N 39°00' E 121°41'45010663.5
2018-Apr-17 16:56N 31°30' E 121°23'132.2
2018-Apr-17 16:54N 31°30' E 121°24'4282988.6
2018-Apr-17 16:45N 38°37' E 121°32'4271683.4
2018-Apr-17 16:30N 31°30' E 121°23'115.4
2018-Apr-17 16:26N 31°30' E 121°24'45118655.7
2018-Apr-17 16:24N 39°00' E 121°41'4511038.4
2018-Apr-17 15:58N 31°30' E 121°24'110.0
2018-Apr-17 15:52N 31°30' E 121°23'4506839.0
2018-Apr-17 15:48N 39°00' E 121°41'4501384.2
2018-Apr-17 15:28N 31°30' E 121°23'112.4
2018-Apr-17 15:23N 31°30' E 121°24'4515655.0
2018-Apr-17 15:18N 39°00' E 121°41'4501238.2
2018-Apr-17 14:56N 31°30' E 121°23'115.4
2018-Apr-17 14:51N 31°30' E 121°24'4513139.5
2018-Apr-17 14:43N 39°00' E 121°41'4501765.6
2018-Apr-17 14:28N 31°30' E 121°23'45026571.4
2018-Apr-17 14:27N 39°00' E 121°41'45114364.1
2018-Apr-17 14:25N 31°30' E 121°24'4292130.2
2018-Apr-17 14:13N 38°39' E 121°38'424.2
2018-Apr-17 14:03N 38°38' E 121°43'22531.4
2018-Apr-17 14:00N 39°00' E 121°41'45150723.8
2018-Apr-17 14:00N 31°30' E 121°24'42912366.5
2018-Apr-17 13:58N 38°39' E 121°38'42923037.0
2018-Apr-17 13:56N 31°30' E 121°23'526.1
2018-Apr-17 13:45N 31°27' E 121°28'519.3
2018-Apr-17 13:29N 31°30' E 121°23'4273.0
2018-Apr-17 13:28N 31°28' E 121°26'45219858.5
2018-Apr-17 13:27N 39°00' E 121°41'4513749.8
2018-Apr-17 13:20N 31°30' E 121°24'236.3
2018-Apr-17 13:17N 31°28' E 121°25'43012200.1
2018-Apr-17 13:15N 38°39' E 121°33'4313942.3
2018-Apr-17 13:08N 31°27' E 121°27'431.3
2018-Apr-17 13:00N 31°30' E 121°24'1108.5
2018-Apr-17 13:00N 31°30' E 121°23'22971.0
2018-Apr-17 13:00N 31°29' E 121°25'23525.4
2018-Apr-17 13:00N 31°30' E 121°23'125.3
2018-Apr-17 12:56N 31°29' E 121°25'121.1
2018-Apr-17 12:53N 31°28' E 121°25'0 6.0
2018-Apr-17 12:49N 31°29' E 121°25'4323624.5
2018-Apr-17 12:42N 38°40' E 121°39'4302287.8
2018-Apr-17 12:30N 31°31' E 121°21'045.9
2018-Apr-17 12:30N 31°31' E 121°21'2742.7
2018-Apr-17 12:29N 31°30' E 121°23'31559.5
2018-Apr-17 12:29N 31°32' E 121°21'545.9
2018-Apr-17 12:23N 31°29' E 121°25'042.7
2018-Apr-17 12:23N 31°29' E 121°25'616.7
2018-Apr-17 12:00N 31°33' E 121°19'071.3
2018-Apr-17 12:00N 31°33' E 121°20'6161.0
2018-Apr-17 11:58N 31°29' E 121°25'0 1.3
2018-Apr-17 11:45N 31°29' E 121°25'4324805.0
2018-Apr-17 11:40N 38°41' E 121°39'4252516.5
2018-Apr-17 11:30N 31°37' E 121°16'2559.9
2018-Apr-17 11:30N 31°35' E 121°17'7645.0
2018-Apr-17 11:29N 31°30' E 121°23'4318301.7
2018-Apr-17 11:26N 38°41' E 121°40'426255870.5
2018-Apr-17 11:26N 31°35' E 121°17'413.6
2018-Apr-17 11:09N 31°32' E 121°20'967.0
2018-Apr-17 11:00N 31°39' E 121°13'3904.2
2018-Apr-17 11:00N 31°37' E 121°15'072.3
2018-Apr-17 11:00N 31°37' E 121°16'423785.0
2018-Apr-17 10:27N 38°39' E 121°39'4203422.5
2018-Apr-17 10:20N 31°39' E 121°13'477.0
2018-Apr-17 10:17N 31°42' E 121°09'32013.9
2018-Apr-17 10:17N 31°40' E 121°12'491.9
2018-Apr-17 10:14N 31°37' E 121°16'621.0
2018-Apr-17 09:57N 31°41' E 121°11'2 4.9
2018-Apr-17 09:30N 31°42' E 121°09'19212.5
2018-Apr-17 09:25N 31°29' E 121°25'636.1
2018-Apr-17 09:15N 31°31' E 121°18'614.0
2018-Apr-17 08:50N 31°29' E 121°25'428922.5
2018-Apr-17 08:22N 38°37' E 121°34'428140096.2
2018-Apr-17 08:22N 31°29' E 121°25'1 3.7
2018-Apr-17 08:00N 31°30' E 121°23'2 3.5
2018-Apr-17 07:30N 31°31' E 121°22'2 2.9
2018-Apr-17 06:53N 31°32' E 121°20'1 2.2
2018-Apr-17 06:28N 31°33' E 121°19'1 1.8
2018-Apr-17 05:58N 31°34' E 121°19'4471870.2
2018-Apr-17 05:44N 39°00' E 121°41'0 0.0
2018-Apr-17 05:25N 39°00' E 121°41'44759557.6
2018-Apr-17 05:25N 31°34' E 121°18'2351.9
2018-Apr-17 04:58N 31°20' E 120°57'4624200.3
2018-Apr-17 04:52N 39°00' E 121°41'45021017.3
2018-Apr-17 04:50N 31°31' E 121°19'724.2
2018-Apr-17 04:33N 31°37' E 121°16'392.3
2018-Apr-17 04:32N 31°35' E 121°18'4469277.0
2018-Apr-17 04:29N 39°00' E 121°41'44417374.6
2018-Apr-17 04:27N 31°37' E 121°17'24324.7
2018-Apr-17 04:23N 31°20' E 120°57'43960744.3
2018-Apr-17 04:22N 38°37' E 121°40'42228148.6
2018-Apr-17 04:21N 31°35' E 121°17'1 1.8
2018-Apr-17 04:00N 31°36' E 121°17'21228.1
2018-Apr-17 04:00N 31°34' E 121°19'244499.3
2018-Apr-17 04:00N 31°20' E 120°57'43930966.4
2018-Apr-17 03:59N 38°37' E 121°41'2385.8
2018-Apr-17 03:43N 39°00' E 121°41'24116.6
2018-Apr-17 03:30N 38°37' E 121°43'249473.8
2018-Apr-17 03:30N 39°00' E 121°41'44967324.3
2018-Apr-17 03:30N 31°32' E 121°22'72950.0
2018-Apr-17 03:30N 31°37' E 121°16'23177.7
2018-Apr-17 03:22N 31°20' E 120°57'4381200.6
2018-Apr-17 03:00N 38°36' E 121°44'41930766.1
2018-Apr-17 02:59N 31°38' E 121°14'23511.8
2018-Apr-17 02:56N 31°20' E 120°57'0 0.2
2018-Apr-17 02:29N 31°20' E 120°57'0 0.1
2018-Apr-17 01:59N 31°20' E 120°57'4621240.6
2018-Apr-17 01:36N 39°00' E 121°41'22756.0
2018-Apr-17 01:34N 38°40' E 121°33'4415291.2
2018-Apr-17 01:29N 31°20' E 120°57'44117658.9
2018-Apr-17 01:28N 38°40' E 121°32'4031138.5
2018-Apr-17 01:07N 32°01' E 120°25'50448.0
2018-Apr-17 01:00N 31°20' E 120°57'503657.3
2018-Apr-17 00:59N 32°02' E 120°26'4231831.2
2018-Apr-17 00:45N 39°00' E 121°41'0 0.0
2018-Apr-17 00:30N 39°00' E 121°41'462184842.3
2018-Apr-17 00:30N 31°20' E 120°57'49325.1
2018-Apr-17 00:21N 32°02' E 120°29'49139.2
2018-Apr-17 00:00N 31°20' E 120°57'4629785.8
2018-Apr-16 23:57N 39°00' E 121°41'468917.7
2018-Apr-16 23:27N 31°13' E 121°09'1 3.3
2018-Apr-16 23:00N 31°11' E 121°09'22673.9
2018-Apr-16 22:58N 31°29' E 121°25'523.5
2018-Apr-16 22:44N 31°32' E 121°20'1 5.2
2018-Apr-16 22:30N 31°33' E 121°19'251667.7
2018-Apr-16 22:29N 31°10' E 121°09'24219.6
2018-Apr-16 22:22N 31°32' E 121°20'4 9.7
2018-Apr-16 21:56N 31°36' E 121°17'2 5.3
2018-Apr-16 21:30N 31°37' E 121°15'5 0.9
2018-Apr-16 15:43N 31°34' E 121°20'718.0
2018-Apr-16 15:20N 31°38' E 121°14'0 0.0
2018-Apr-16 14:28N 31°38' E 121°14'0 0.1
2018-Apr-16 13:52N 31°38' E 121°14'0 1.1
2018-Apr-16 13:30N 31°39' E 121°14'832.4
2018-Apr-16 13:16N 31°33' E 121°20'2 5.1
2018-Apr-16 12:57N 31°34' E 121°19'5 5.6
2018-Apr-16 12:08N 31°37' E 121°15'1 5.9
2018-Apr-16 11:53N 31°38' E 121°14'8 6.8
2018-Apr-16 10:48N 31°33' E 121°20'4481355.5
2018-Apr-16 10:28N 38°60' E 121°41'44366.0
2018-Apr-16 03:45N 31°37' E 121°17'36372.7
2018-Apr-16 03:39N 31°06' E 120°58'34100.5
2018-Apr-16 03:19N 31°35' E 121°19'2 7.4
2018-Apr-16 03:00N 31°33' E 121°21'446741.0
2018-Apr-16 02:24N 38°59' E 121°42'1 2.3
2018-Apr-16 01:55N 38°60' E 121°41'4532554.9
2018-Apr-16 01:44N 31°27' E 121°28'2 4.5
2018-Apr-16 01:19N 31°28' E 121°26'4523866.8
2018-Apr-16 01:12N 39°00' E 121°41'0 0.0
2018-Apr-16 00:56N 39°00' E 121°41'4622736.2
2018-Apr-16 00:46N 31°20' E 120°57'4621749.3
2018-Apr-16 00:30N 39°00' E 121°41'4628992.3
2018-Apr-16 00:27N 31°20' E 120°57'4621043.7
2018-Apr-16 00:01N 39°00' E 121°41'451559.9
2018-Apr-15 23:12N 31°29' E 121°24'1 4.7
2018-Apr-15 23:00N 31°30' E 121°23'2 3.3
2018-Apr-15 22:29N 31°31' E 121°22'1815.5
2018-Apr-15 21:20N 31°15' E 121°30'6021.8
2018-Apr-15 18:36N 32°01' E 120°46'422147.2
2018-Apr-15 15:44N 39°00' E 121°41'4451383.7
2018-Apr-15 15:25N 31°36' E 121°18'4452659.4
2018-Apr-15 15:15N 39°00' E 121°41'4471795.8
2018-Apr-15 15:00N 31°34' E 121°20'4 6.9
2018-Apr-15 14:29N 31°32' E 121°23'3 6.2
2018-Apr-15 14:00N 31°30' E 121°26'45124959.4
2018-Apr-15 13:59N 39°00' E 121°41'4481710.5
2018-Apr-15 13:43N 31°33' E 121°21'53 9.8
2018-Apr-15 08:20N 31°58' E 120°26'670863.1
2018-Apr-15 07:33N 22°18' E 114°09'1 8.8
2018-Apr-15 07:29N 22°18' E 114°09'675384.6
2018-Apr-15 05:44N 31°30' E 121°25'3 6.5
2018-Apr-15 05:13N 31°32' E 121°21'1 6.6
2018-Apr-15 05:00N 31°33' E 121°20'4 6.3
2018-Apr-15 04:21N 31°36' E 121°17'2 5.9
2018-Apr-15 04:00N 31°38' E 121°17'172.4
2018-Apr-15 03:59N 31°39' E 121°16'2 3.6
2018-Apr-15 03:30N 31°41' E 121°15'  
Track history (hours):
 
Tides and Currents Weather Stations Pressure Air Temp Water Temp Dewpoint Dewpoint Depression Visibility Wind Speed Wind Dir Waves Ship Positions

Su Yang Bo 001

Last reported at 2018-Apr-25 02:47 UTC. Time now 2018-Apr-25 05:00 UTC.
Position N 31°29' E 121°25'.

Length 50 m.

Type: Towing. MMSI: 200002069.

Date/timePositionNaut miles runAvg speedWind from/ knotsBaromVisibWave heightAir tempDewpointWater temp
2018-Apr-25 02:47N 31°29' E 121°25'1 3.8
2018-Apr-25 02:30N 31°30' E 121°24'5082603.2
2018-Apr-25 02:19N 23°45' E 117°30'51011261.3
2018-Apr-25 02:16N 31°31' E 121°24'147.9
2018-Apr-25 02:14N 31°32' E 121°22'55955.1
2018-Apr-25 02:11N 31°58' E 120°26'4043687.3
2018-Apr-25 02:04N 38°37' E 121°45'4266673.2
2018-Apr-25 02:00N 31°31' E 121°25'571516.9
2018-Apr-25 01:58N 31°59' E 120°27'518109618.7
2018-Apr-25 01:58N 23°45' E 117°30'50963174.9
2018-Apr-25 01:57N 31°31' E 121°21'241.3
2018-Apr-25 01:54N 31°31' E 121°24'4266010.1
2018-Apr-25 01:50N 38°36' E 121°45'4251272.8
2018-Apr-25 01:30N 31°32' E 121°20'7947.3
2018-Apr-25 01:30N 31°29' E 121°27'42821414.9
2018-Apr-25 01:28N 38°37' E 121°44'91876817.4
2018-Apr-25 01:28N 23°45' E 117°30'5188790.6
2018-Apr-25 01:24N 31°59' E 120°27'0 0.0
2018-Apr-25 01:00N 31°59' E 120°27'508242.6
2018-Apr-25 01:00N 31°34' E 121°18'51012939.9
2018-Apr-25 00:58N 23°45' E 117°30'91815018.7
2018-Apr-25 00:54N 38°37' E 121°45'4194367.3
2018-Apr-25 00:48N 31°39' E 121°14'414.3
2018-Apr-25 00:30N 31°35' E 121°17'4987619.5
2018-Apr-25 00:30N 31°59' E 120°27'473087.6
2018-Apr-25 00:29N 31°37' E 121°16'51317415.5
2018-Apr-25 00:28N 23°45' E 117°30'5181144.0
2018-Apr-25 00:00N 31°59' E 120°27'512201.6
2018-Apr-24 23:59N 31°35' E 121°19'51120684.3
2018-Apr-24 23:58N 23°45' E 117°30'7502897.5
2018-Apr-24 23:42N 35°58' E 120°32'2701375.0
2018-Apr-24 23:30N 31°32' E 121°22'51011477.2
2018-Apr-24 23:28N 23°45' E 117°30'7508489.4
2018-Apr-24 23:22N 35°58' E 120°31'7502046.5
2018-Apr-24 23:00N 23°44' E 117°32'51452848.8
2018-Apr-24 23:00N 31°40' E 121°12'161278.8
2018-Apr-24 22:59N 31°30' E 121°26'5121073.2
2018-Apr-24 22:30N 23°41' E 117°33'9244161.1
2018-Apr-24 22:17N 38°37' E 121°51'9273332.6
2018-Apr-24 22:00N 23°37' E 117°34'5054165.6
2018-Apr-24 21:53N 31°15' E 121°32'28819920.3
2018-Apr-24 21:52N 35°59' E 120°33'28810679.2
2018-Apr-24 21:51N 31°15' E 121°30'5061495.8
2018-Apr-24 21:30N 23°34' E 117°34'50621421.7
2018-Apr-24 21:29N 31°15' E 121°30'2886646.1
2018-Apr-24 21:26N 35°59' E 120°32'7641350.4
2018-Apr-24 20:52N 23°30' E 117°35'1530.2
2018-Apr-24 20:22N 23°45' E 117°30'49228544.1
2018-Apr-24 20:21N 31°09' E 121°28'4492427.9
2018-Apr-24 20:10N 38°38' E 121°58'9225956.2
2018-Apr-24 20:00N 23°45' E 117°32'9223234.4
2018-Apr-24 19:43N 38°38' E 121°58'9254003.5
2018-Apr-24 19:29N 23°41' E 117°33'5212565.5
2018-Apr-24 19:17N 31°59' E 120°27'4065472.1
2018-Apr-24 19:13N 38°38' E 121°57'545927182.9
2018-Apr-24 19:01N 37°47' W 122°16'5460225923.8
2018-Apr-24 18:59N 38°38' E 121°56'40638429.6
2018-Apr-24 18:59N 31°59' E 120°27'5783385549.4
2018-Apr-24 18:58N 37°47' W 122°16'62577508614.3
2018-Apr-24 18:58N 23°37' E 117°34'9271799.7
2018-Apr-24 18:27N 38°38' E 121°54'1 2.5
2018-Apr-24 18:00N 38°37' E 121°53'453486.2
2018-Apr-24 17:04N 31°06' E 120°56'0 4.1
2018-Apr-24 17:00N 31°06' E 120°56'454459.7
2018-Apr-24 16:01N 38°38' E 121°48'0 2.2
2018-Apr-24 15:59N 38°38' E 121°48'10574363.1
2018-Apr-24 15:45N 22°18' E 114°09'10564380.8
2018-Apr-24 15:30N 38°38' E 121°47'4261107.6
2018-Apr-24 15:07N 31°32' E 121°20'1 6.4
2018-Apr-24 14:56N 31°33' E 121°19'4254297.4
2018-Apr-24 14:50N 38°38' E 121°45'1 1.9
2018-Apr-24 14:29N 38°38' E 121°46'4172408.5
2018-Apr-24 14:19N 31°41' E 121°15'2 6.3
2018-Apr-24 14:00N 31°40' E 121°16'522.9
2018-Apr-24 13:47N 31°42' E 121°10'2 8.4
2018-Apr-24 13:30N 31°40' E 121°12'6114.6
2018-Apr-24 13:27N 31°36' E 121°17'511.9
2018-Apr-24 13:02N 31°39' E 121°13'8238.9
2018-Apr-24 13:00N 31°34' E 121°19'4205.0
2018-Apr-24 12:59N 31°37' E 121°16'488.9
2018-Apr-24 12:57N 31°39' E 121°13'716.8
2018-Apr-24 12:30N 31°34' E 121°19'461.6
2018-Apr-24 12:26N 31°32' E 121°23'0 0.1
2018-Apr-24 12:00N 31°32' E 121°23'3 1.6
2018-Apr-24 09:55N 31°34' E 121°20'663.8
2018-Apr-24 09:50N 31°38' E 121°15'2 4.7
2018-Apr-24 09:30N 31°37' E 121°17'3731487.7
2018-Apr-24 09:15N 37°49' E 121°39'1 5.9
2018-Apr-24 09:00N 37°49' E 121°40'374122301.0
2018-Apr-24 09:00N 31°35' E 121°18'2 4.5
2018-Apr-24 08:30N 31°34' E 121°20'52289.9
2018-Apr-24 08:19N 31°59' E 120°27'3543421.4
2018-Apr-24 08:13N 37°46' E 121°45'3751782.4
2018-Apr-24 08:00N 31°32' E 121°22'5464710.0
2018-Apr-24 08:00N 31°59' E 120°27'0 0.1
2018-Apr-24 07:29N 31°59' E 120°27'406566.4
2018-Apr-24 06:46N 38°38' E 121°51'4063195.0
2018-Apr-24 06:38N 31°59' E 120°27'0 0.0
2018-Apr-24 06:28N 31°59' E 120°27'0 0.0
2018-Apr-24 05:57N 31°59' E 120°27'9542078.3
2018-Apr-24 05:30N 19°44' E 109°11'954686684.8
2018-Apr-24 05:30N 31°59' E 120°27'0 0.0
2018-Apr-24 05:00N 31°59' E 120°27'404974.3
2018-Apr-24 04:35N 38°37' E 121°45'4045228.8
2018-Apr-24 04:30N 31°59' E 120°27'40410233.4
2018-Apr-24 04:28N 38°37' E 121°44'404880.2
2018-Apr-24 04:01N 31°59' E 120°27'403770.3
2018-Apr-24 03:29N 38°37' E 121°42'4542314.1
2018-Apr-24 03:17N 31°04' E 121°01'2 5.9
2018-Apr-24 03:00N 31°05' E 120°59'3 6.3
2018-Apr-24 02:30N 31°06' E 120°56'3314.8
2018-Apr-24 00:16N 31°33' E 121°20'1 3.1
2018-Apr-23 23:55N 31°33' E 121°19'38170.1
2018-Apr-23 18:29N 25°13' E 121°41'41382.7
2018-Apr-23 13:30N 32°00' E 120°27'4469.6
2018-Apr-23 12:52N 31°40' E 121°13'34107.3
2018-Apr-23 12:32N 31°08' E 121°28'33895.7
2018-Apr-23 12:30N 31°39' E 121°15'3 5.7
2018-Apr-23 12:00N 31°37' E 121°17'3 5.5
2018-Apr-23 11:30N 31°34' E 121°19'52126.4
2018-Apr-23 11:05N 31°58' E 120°25'54536.0
2018-Apr-23 10:59N 31°32' E 121°21'541617.0
2018-Apr-23 10:57N 31°58' E 120°25'71342.1
2018-Apr-23 10:45N 31°14' E 121°30'1767.1
2018-Apr-23 10:29N 31°31' E 121°24'16216.4
2018-Apr-23 10:25N 31°15' E 121°30'2858.3
2018-Apr-23 09:56N 31°39' E 121°14'3 6.2
2018-Apr-23 09:30N 31°37' E 121°16'4441321.6
2018-Apr-23 09:10N 39°00' E 121°41'0 0.0
2018-Apr-23 08:58N 39°00' E 121°41'0 0.0
2018-Apr-23 08:16N 39°00' E 121°41'23356521.7
2018-Apr-23 07:55N 00°05' E 121°23'23359752.3
2018-Apr-23 07:41N 39°00' E 121°41'0 0.0
2018-Apr-23 07:30N 39°00' E 121°41'233572469.8
2018-Apr-23 07:28N 00°05' E 121°23'0 0.0
2018-Apr-23 06:57N 00°05' E 121°23'233522239.4
2018-Apr-23 06:51N 39°00' E 121°41'23356774.0
2018-Apr-23 06:30N 00°05' E 121°23'233538739.6
2018-Apr-23 06:26N 39°00' E 121°41'23354768.3
2018-Apr-23 05:57N 00°05' E 121°23'2335147482.3
2018-Apr-23 05:56N 39°00' E 121°41'23355381.9
2018-Apr-23 05:30N 00°05' E 121°23'0 0.0
2018-Apr-23 04:57N 00°05' E 121°23'184756358.7
2018-Apr-23 04:55N 30°52' E 122°16'18474430.6
2018-Apr-23 04:30N 00°05' E 121°23'19147504.0
2018-Apr-23 04:15N 31°58' E 120°25'19147810.3
2018-Apr-23 04:00N 00°05' E 121°23'191438918.9
2018-Apr-23 03:57N 31°58' E 120°25'19144169.9
2018-Apr-23 03:29N 00°05' E 121°23'191460961.7
2018-Apr-23 03:28N 31°58' E 120°25'19144083.4
2018-Apr-23 02:59N 00°05' E 121°23'191411128.7
2018-Apr-23 02:49N 31°58' E 120°25'4662484.1
2018-Apr-23 02:38N 24°29' E 118°04'1 5.1
2018-Apr-23 02:29N 24°29' E 118°04'147722152.5
2018-Apr-23 02:25N 00°05' E 121°23'233511563.3
2018-Apr-23 02:13N 39°00' E 121°41'23359424.3
2018-Apr-23 01:58N 00°05' E 121°23'233557187.0
2018-Apr-23 01:56N 39°00' E 121°41'4735129.6
2018-Apr-23 01:50N 31°08' E 121°55'18625075.5
2018-Apr-23 01:28N 00°05' E 121°23'1893296272.2
2018-Apr-23 01:28N 31°38' E 121°14'44311069.9
2018-Apr-23 01:26N 39°00' E 121°41'4431059.2
2018-Apr-23 01:01N 31°38' E 121°14'189353655.4
2018-Apr-23 00:58N 00°05' E 121°23'233514248.3
2018-Apr-23 00:49N 39°00' E 121°41'42746564.0
2018-Apr-23 00:48N 31°58' E 120°25'46152.1
2018-Apr-23 00:30N 31°38' E 121°14'189375713.8
2018-Apr-23 00:28N 00°05' E 121°23'1853370604.9
2018-Apr-23 00:28N 30°58' E 122°13'1101221.4
2018-Apr-23 00:23N 31°58' E 120°25'107287.6
2018-Apr-23 00:00N 30°60' E 122°10'615389.6
2018-Apr-23 00:00N 31°38' E 121°14'189384126.4
2018-Apr-22 23:58N 00°05' E 121°23'18933918.5
2018-Apr-22 23:29N 31°38' E 121°14'574213.0
2018-Apr-22 23:29N 31°02' E 122°06'1857557032.2
2018-Apr-22 23:28N 00°05' E 121°23'19148370.2
2018-Apr-22 23:15N 31°58' E 120°25'19147058.1
2018-Apr-22 22:58N 00°05' E 121°23'1914156561.2
2018-Apr-22 22:58N 31°58' E 120°25'461922.6
2018-Apr-22 22:56N 31°38' E 121°14'18933626.5
2018-Apr-22 22:25N 00°05' E 121°23'189353655.3
2018-Apr-22 22:23N 31°38' E 121°14'727.3
2018-Apr-22 22:06N 31°33' E 121°20'774.5
2018-Apr-22 22:00N 31°38' E 121°14'35520621.3
2018-Apr-22 21:59N 37°33' E 121°23'36013370.4
2018-Apr-22 21:58N 31°33' E 121°19'714.6
2018-Apr-22 21:30N 31°38' E 121°14'1151.0
2018-Apr-22 21:17N 31°30' E 121°23'1140.9
2018-Apr-22 21:00N 31°38' E 121°14'538836391.3
2018-Apr-22 20:52N 49°18' W 123°02'538715767.9
2018-Apr-22 20:31N 31°40' E 121°13'285.9
2018-Apr-22 20:30N 31°38' E 121°14'5385842919.8
2018-Apr-22 20:30N 49°18' W 123°06'538593195.8
2018-Apr-22 20:26N 31°39' E 121°14'2 6.0
2018-Apr-22 20:09N 31°38' E 121°15'890.0
2018-Apr-22 20:04N 31°43' E 121°08'1865959.7
2018-Apr-22 20:04N 31°30' E 121°23'11202.2
2018-Apr-22 20:00N 31°38' E 121°14'7249.3
2018-Apr-22 19:59N 31°43' E 121°08'5383161487.2
2018-Apr-22 19:57N 49°19' W 123°09'538214320.2
2018-Apr-22 19:34N 31°34' E 121°19'679.3
2018-Apr-22 19:30N 31°38' E 121°14'5381146767.6
2018-Apr-22 19:28N 49°17' W 123°11'53814843216.1
2018-Apr-22 19:28N 31°41' E 121°11'101144.0
2018-Apr-22 19:27N 31°34' E 121°19'647.3
2018-Apr-22 19:19N 31°38' E 121°15'2 7.1
2018-Apr-22 19:00N 31°40' E 121°13'3259.0
2018-Apr-22 19:00N 31°38' E 121°15'5381624945.6
2018-Apr-22 18:59N 49°17' W 123°11'538135221.5
2018-Apr-22 18:50N 31°36' E 121°18'7451.0
2018-Apr-22 18:49N 31°31' E 121°24'824.7
2018-Apr-22 18:30N 31°36' E 121°17'5381484259.7
2018-Apr-22 18:30N 49°17' W 123°11'5382509832.6
2018-Apr-22 18:29N 31°39' E 121°13'4429249.4
2018-Apr-22 18:26N 39°00' E 121°41'44730365.1
2018-Apr-22 18:25N 31°34' E 121°19'52421.2
2018-Apr-22 18:18N 31°58' E 120°25'52177.7
2018-Apr-22 18:00N 31°34' E 121°19'53801760628.8
2018-Apr-22 18:00N 49°17' W 123°13'5380265306.4
2018-Apr-22 17:59N 31°32' E 121°22'11467.8
2018-Apr-22 17:58N 31°39' E 121°13'1022.8
2018-Apr-22 17:30N 31°32' E 121°22'53801383457.5
2018-Apr-22 17:30N 49°17' W 123°12'53813228392.6
2018-Apr-22 17:30N 31°38' E 121°14'719.3
2018-Apr-22 17:08N 31°33' E 121°20'537.4
2018-Apr-22 17:00N 31°31' E 121°25'108665.0
2018-Apr-22 17:00N 31°37' E 121°16'4682374.1
2018-Apr-22 16:49N 24°11' E 118°39'5878104753.8
2018-Apr-22 16:45N 49°17' W 123°12'538142762.0
2018-Apr-22 16:38N 31°30' E 121°23'433.2
2018-Apr-22 16:30N 31°29' E 121°27'46029054.7
2018-Apr-22 16:30N 24°13' E 118°41'46428321.9
2018-Apr-22 16:29N 31°36' E 121°18'799.1
2018-Apr-22 16:25N 31°30' E 121°23'538134590.0
2018-Apr-22 16:15N 49°17' W 123°12'538021497.5
2018-Apr-22 16:00N 31°34' E 121°20'5380222627.2
2018-Apr-22 15:59N 49°17' W 123°13'538031858.0
2018-Apr-22 15:49N 31°30' E 121°23'537817567.4
2018-Apr-22 15:30N 49°17' W 123°16'53774839211.2
2018-Apr-22 15:30N 31°32' E 121°22'210.8
2018-Apr-22 15:19N 31°30' E 121°23'416.4
2018-Apr-22 15:06N 31°33' E 121°20'443.1
2018-Apr-22 15:00N 31°31' E 121°24'5374235936.7
2018-Apr-22 14:59N 49°16' W 123°20'537627844.7
2018-Apr-22 14:47N 31°30' E 121°23'537519009.4
2018-Apr-22 14:30N 49°15' W 123°20'53741381797.8
2018-Apr-22 14:30N 31°30' E 121°26'323.7
2018-Apr-22 14:23N 31°30' E 121°23'537412106.6
2018-Apr-22 13:56N 49°15' W 123°22'537356886.9
2018-Apr-22 13:51N 31°30' E 121°25'537115129.0
2018-Apr-22 13:29N 49°16' W 123°25'53723867632.4
2018-Apr-22 13:29N 31°31' E 121°22'2 4.9
2018-Apr-22 13:02N 31°30' E 121°24'6216.0
2018-Apr-22 13:00N 31°34' E 121°18'5369178961.5
2018-Apr-22 12:58N 49°16' W 123°29'5369136115.7
2018-Apr-22 12:56N 31°30' E 121°23'1021.5
2018-Apr-22 12:28N 31°38' E 121°16'5362410739.8
2018-Apr-22 12:27N 49°17' W 123°34'536111811.6
2018-Apr-22 12:00N 31°41' E 121°14'1342.1
2018-Apr-22 11:41N 31°30' E 121°23'0 1.2
2018-Apr-22 11:31N 31°30' E 121°23'3 6.1
2018-Apr-22 10:58N 31°33' E 121°20'5101128.0
2018-Apr-22 10:31N 23°45' E 117°31'0 0.0
2018-Apr-22 10:23N 23°45' E 117°31'5122734.2
2018-Apr-22 10:11N 31°36' E 121°17'3430.7
2018-Apr-22 09:04N 31°06' E 120°58'1 6.3
2018-Apr-22 08:59N 31°06' E 120°57'429619.6
2018-Apr-22 08:17N 24°17' E 118°30'3 8.9
2018-Apr-22 08:00N 24°16' E 118°27'4661912.7
2018-Apr-22 07:45N 31°39' E 121°13'4701725.1
2018-Apr-22 07:29N 24°13' E 118°23'4704339.4
2018-Apr-22 07:23N 31°39' E 121°13'728.2
2018-Apr-22 07:08N 31°34' E 121°20'1 5.4
2018-Apr-22 07:00N 31°34' E 121°20'47211969.4
2018-Apr-22 06:58N 24°09' E 118°20'4731858.3
2018-Apr-22 06:43N 31°35' E 121°19'1 5.1
2018-Apr-22 06:30N 31°34' E 121°20'4784126.3
2018-Apr-22 06:23N 24°04' E 118°17'4771198.0
2018-Apr-22 05:59N 31°32' E 121°22'3 4.9
2018-Apr-22 05:28N 31°31' E 121°24'45024911.0
2018-Apr-22 05:27N 39°00' E 121°41'0 0.0
2018-Apr-22 04:59N 39°00' E 121°41'0 0.0
2018-Apr-22 04:24N 39°00' E 121°41'0 0.0
2018-Apr-22 03:46N 39°00' E 121°41'0 0.0
2018-Apr-22 03:27N 39°00' E 121°41'0 0.0
2018-Apr-22 02:59N 39°00' E 121°41'4973344306.7
2018-Apr-22 02:58N 49°20' W 123°39'2 3.3
2018-Apr-22 02:28N 49°19' W 123°38'497563739.0
2018-Apr-22 02:24N 39°00' E 121°41'497712289.4
2018-Apr-22 01:59N 49°19' W 123°35'4977215878.6
2018-Apr-22 01:58N 39°00' E 121°41'498110827.4
2018-Apr-22 01:30N 49°19' W 123°31'4981407502.6
2018-Apr-22 01:30N 39°00' E 121°41'4451303.2
2018-Apr-22 01:09N 31°36' E 121°17'536934765.8
2018-Apr-22 01:00N 49°18' W 123°26'536815508.4
2018-Apr-22 00:39N 31°39' E 121°16'537125439.9
2018-Apr-22 00:26N 49°18' W 123°22'5953155308.5
2018-Apr-22 00:24N 23°34' E 117°31'819.7
2018-Apr-22 00:00N 23°41' E 117°32'5950184652.4
2018-Apr-21 23:58N 49°18' W 123°18'3 5.7
2018-Apr-21 23:29N 49°18' W 123°14'1 2.7
2018-Apr-21 22:59N 49°17' W 123°12'1 1.1
2018-Apr-21 22:29N 49°18' W 123°12'1 1.9
2018-Apr-21 21:58N 49°17' W 123°11'568513126.8
2018-Apr-21 21:32N 25°13' E 121°41'1 8.5
2018-Apr-21 21:28N 25°14' E 121°41'5681681671.5
2018-Apr-21 21:28N 49°19' W 123°15'2 3.7
2018-Apr-21 20:47N 49°21' W 123°17'1 1.8
2018-Apr-21 20:29N 49°21' W 123°17'3 5.8
2018-Apr-21 19:59N 49°20' W 123°21'537311609.4
2018-Apr-21 19:31N 31°40' E 121°12'5373471783.4
2018-Apr-21 19:30N 49°21' W 123°20'537317238.7
2018-Apr-21 19:12N 31°39' E 121°14'537528538.2
2018-Apr-21 19:00N 49°20' W 123°18'5375230340.7
2018-Apr-21 18:59N 31°38' E 121°16'4 6.9
2018-Apr-21 18:28N 31°35' E 121°18'5378379599.8
2018-Apr-21 18:27N 49°19' W 123°14'2 4.3
2018-Apr-21 18:00N 49°18' W 123°12'5380412067.4
2018-Apr-21 18:00N 31°33' E 121°21'538110539.9
2018-Apr-21 17:29N 49°17' W 123°11'2 4.2
2018-Apr-21 16:59N 49°18' W 123°10'3 5.7
2018-Apr-21 16:30N 49°18' W 123°06'58082114.9
2018-Apr-21 13:45N 24°24' E 120°01'428647.0
2018-Apr-21 13:05N 31°24' E 121°35'7180.1
2018-Apr-21 12:12N 32°01' E 120°23'2 7.4
2018-Apr-21 11:58N 32°01' E 120°25'4 7.1
2018-Apr-21 11:21N 32°02' E 120°30'5 6.0
2018-Apr-21 10:26N 31°58' E 120°26'0 0.1
2018-Apr-21 09:28N 31°58' E 120°26'49173.5
2018-Apr-21 09:11N 31°37' E 121°17'1 7.2
2018-Apr-21 09:00N 31°36' E 121°18'4 7.8
2018-Apr-21 08:28N 31°33' E 121°21'6752659.4
2018-Apr-21 08:13N 22°18' E 114°09'6773016.0
2018-Apr-21 08:00N 31°41' E 121°12'67793733.7
2018-Apr-21 07:59N 22°18' E 114°09'107524495.3
2018-Apr-21 07:57N 39°00' E 121°41'10752464.0
2018-Apr-21 07:30N 22°17' E 114°10'67043862.2
2018-Apr-21 07:30N 31°58' E 120°26'47775.0
2018-Apr-21 07:26N 31°38' E 121°15'4262143.7
2018-Apr-21 07:14N 38°44' E 121°32'4281616.2
2018-Apr-21 06:58N 31°36' E 121°18'42722943.7
2018-Apr-21 06:57N 38°43' E 121°36'4262807.9
2018-Apr-21 06:48N 31°37' E 121°17'516.1
2018-Apr-21 06:30N 31°34' E 121°20'42832103.7
2018-Apr-21 06:29N 38°41' E 121°42'196263.7
2018-Apr-21 06:29N 39°00' E 121°41'4471466.8
2018-Apr-21 06:11N 31°34' E 121°20'420.9
2018-Apr-21 05:59N 31°32' E 121°23'44952139.2
2018-Apr-21 05:59N 39°00' E 121°41'447536931.8
2018-Apr-21 05:59N 31°33' E 121°21'4281910.1
2018-Apr-21 05:45N 38°41' E 121°45'1 2.6
2018-Apr-21 05:30N 38°41' E 121°46'201016.6
2018-Apr-21 05:29N 39°00' E 121°41'2027.9
2018-Apr-21 04:46N 38°41' E 121°48'2035.6
2018-Apr-21 04:12N 39°00' E 121°41'0 0.0
2018-Apr-21 03:53N 39°00' E 121°41'211468.8
2018-Apr-21 03:52N 38°41' E 121°51'21 6.5
2018-Apr-21 00:41N 39°00' E 121°41'0 0.0
2018-Apr-21 00:20N 39°00' E 121°41'0 0.0
2018-Apr-20 23:59N 39°00' E 121°41'93413402.4
2018-Apr-20 23:55N 23°33' E 119°31'916435.0
2018-Apr-20 21:48N 38°41' E 121°51'1 1.9
2018-Apr-20 21:30N 38°41' E 121°51'2 2.1
2018-Apr-20 20:34N 38°40' E 121°48'0 1.3
2018-Apr-20 20:25N 38°40' E 121°48'1 0.7
2018-Apr-20 19:39N 38°41' E 121°49'1 1.9
2018-Apr-20 19:13N 38°41' E 121°50'1 2.0
2018-Apr-20 18:39N 38°41' E 121°51'0 1.9
2018-Apr-20 18:26N 38°42' E 121°51'423805.2
2018-Apr-20 17:54N 31°39' E 121°13'4248626.5
2018-Apr-20 17:51N 38°42' E 121°53'1 1.3
2018-Apr-20 17:27N 38°43' E 121°53'4272900.6
2018-Apr-20 17:19N 31°37' E 121°17'3 6.5
2018-Apr-20 16:54N 31°34' E 121°19'2 6.1
2018-Apr-20 16:30N 31°33' E 121°21'4 2.7
2018-Apr-20 15:06N 31°30' E 121°24'0 0.0
2018-Apr-20 14:54N 31°30' E 121°24'0 0.0
2018-Apr-20 14:09N 31°30' E 121°24'0 0.0
2018-Apr-20 14:01N 31°30' E 121°24'0 0.0
2018-Apr-20 13:20N 31°30' E 121°24'0 0.0
2018-Apr-20 12:41N 31°30' E 121°24'0 0.0
2018-Apr-20 12:29N 31°30' E 121°24'0 0.0
2018-Apr-20 12:00N 31°30' E 121°24'0 0.1
2018-Apr-20 10:37N 31°30' E 121°24'1834.4
2018-Apr-20 10:06N 31°42' E 121°09'1 7.8
2018-Apr-20 09:57N 31°41' E 121°10'424545.3
2018-Apr-20 09:10N 38°45' E 121°45'0 1.5
2018-Apr-20 08:55N 38°45' E 121°45'1 1.5
2018-Apr-20 08:24N 38°45' E 121°44'42111070.2
2018-Apr-20 08:22N 31°45' E 121°06'4211150.4
2018-Apr-20 08:00N 38°45' E 121°44'42340082.3
2018-Apr-20 08:00N 31°43' E 121°08'423863.9
2018-Apr-20 07:30N 38°45' E 121°44'42766810.4
2018-Apr-20 07:30N 31°39' E 121°13'2847.5
2018-Apr-20 07:30N 31°41' E 121°12'3 6.7
2018-Apr-20 07:00N 31°39' E 121°15'4277879.0
2018-Apr-20 06:57N 38°45' E 121°44'4274390.2
2018-Apr-20 06:51N 31°39' E 121°13'412.0
2018-Apr-20 06:30N 31°36' E 121°18'483.5
2018-Apr-20 06:27N 31°39' E 121°13'4278882.4
2018-Apr-20 06:24N 38°45' E 121°44'4261379.3
2018-Apr-20 06:06N 31°39' E 121°16'4264582.7
2018-Apr-20 06:00N 38°45' E 121°44'427384622.4
2018-Apr-20 06:00N 31°38' E 121°15'218.0
2018-Apr-20 05:55N 31°38' E 121°17'4281030.1
2018-Apr-20 05:30N 38°45' E 121°45'4348673.4
2018-Apr-20 05:27N 31°32' E 121°23'10944.1
2018-Apr-20 05:26N 31°39' E 121°15'5156.6
2018-Apr-20 05:24N 31°35' E 121°19'024.9
2018-Apr-20 05:24N 31°35' E 121°19'1245.8
2018-Apr-20 05:08N 31°43' E 121°08'20164.8
2018-Apr-20 05:00N 31°30' E 121°26'43511866.7
2018-Apr-20 04:58N 38°45' E 121°47'43377988.7
2018-Apr-20 04:58N 31°32' E 121°19'5177.1
2018-Apr-20 04:56N 31°36' E 121°17'987.9
2018-Apr-20 04:50N 31°42' E 121°09'155500.2
2018-Apr-20 04:50N 31°32' E 121°22'3 6.9
2018-Apr-20 04:28N 31°32' E 121°19'48779656.0
2018-Apr-20 04:28N 23°34' E 119°35'91873443.2
2018-Apr-20 04:27N 38°45' E 121°48'43815753.2
2018-Apr-20 04:25N 31°28' E 121°28'20251.3
2018-Apr-20 04:21N 31°41' E 121°11'1230.7
2018-Apr-20 03:58N 31°32' E 121°19'10371.5
2018-Apr-20 03:56N 31°40' E 121°12'4411044.8
2018-Apr-20 03:31N 39°00' E 121°40'4772457.6
2018-Apr-20 03:19N 31°05' E 120°59'476856808.2
2018-Apr-20 03:19N 38°60' E 121°41'44826039.3
2018-Apr-20 03:18N 31°32' E 121°19'32107.7
2018-Apr-20 03:00N 31°06' E 120°57'32197.9
2018-Apr-20 02:50N 31°32' E 121°19'433831.6
2018-Apr-20 02:19N 38°44' E 121°50'4272865.9
2018-Apr-20 02:10N 31°39' E 121°13'4262336.3
2018-Apr-20 01:59N 38°44' E 121°50'4331614.6
2018-Apr-20 01:43N 31°32' E 121°19'8303.1
2018-Apr-20 01:42N 31°39' E 121°13'14134.8
2018-Apr-20 01:35N 31°28' E 121°25'4364105.8
2018-Apr-20 01:29N 38°44' E 121°48'4495299.2
2018-Apr-20 01:24N 31°15' E 121°30'19609.4
2018-Apr-20 01:22N 31°32' E 121°19'8110.6
2018-Apr-20 01:17N 31°39' E 121°13'2681.9
2018-Apr-20 00:58N 31°13' E 121°09'269351.1
2018-Apr-20 00:58N 31°39' E 121°13'42661284.5
2018-Apr-20 00:58N 38°43' E 121°48'4324082.4
2018-Apr-20 00:51N 31°32' E 121°19'2263.1
2018-Apr-20 00:30N 31°11' E 121°09'4536906.9
2018-Apr-20 00:26N 38°43' E 121°42'4322217.8
2018-Apr-20 00:15N 31°32' E 121°19'4321797.8
2018-Apr-20 00:00N 38°44' E 121°37'4552962.4
2018-Apr-19 23:51N 31°09' E 121°10'3063.1
2018-Apr-19 23:23N 31°39' E 121°13'0 0.2
2018-Apr-19 21:49N 31°39' E 121°13'9476.9
2018-Apr-19 21:48N 31°32' E 121°19'0 0.0
2018-Apr-19 21:30N 31°32' E 121°19'939.8
2018-Apr-19 21:17N 31°39' E 121°13'0 0.1
2018-Apr-19 21:01N 31°39' E 121°13'1726.9
2018-Apr-19 20:22N 31°27' E 121°28'17215.7
2018-Apr-19 20:17N 31°39' E 121°13'972.8
2018-Apr-19 20:10N 31°32' E 121°19'939.3
2018-Apr-19 19:57N 31°39' E 121°13'9236.2
2018-Apr-19 19:55N 31°32' E 121°19'691.5
2018-Apr-19 19:51N 31°29' E 121°25'2 6.3
2018-Apr-19 19:30N 31°30' E 121°23'443.6
2018-Apr-19 19:25N 31°32' E 121°19'980.4
2018-Apr-19 19:18N 31°39' E 121°13'1033.5
2018-Apr-19 19:00N 31°31' E 121°21'1079.0
2018-Apr-19 18:52N 31°39' E 121°13'823.0
2018-Apr-19 18:30N 31°33' E 121°20'8403.1
2018-Apr-19 18:29N 31°39' E 121°13'497.9
2018-Apr-19 18:27N 31°42' E 121°10'1125.3
2018-Apr-19 18:00N 31°34' E 121°19'71213.4
2018-Apr-19 18:00N 31°39' E 121°13'9133.2
2018-Apr-19 17:56N 31°32' E 121°19'20415.2
2018-Apr-19 17:53N 31°14' E 121°30'2459.6
2018-Apr-19 17:29N 31°36' E 121°17'111.3
2018-Apr-19 17:23N 31°35' E 121°18'2 6.1
2018-Apr-19 17:00N 31°33' E 121°20'5523.0
2018-Apr-19 16:59N 31°37' E 121°16'734.1
2018-Apr-19 16:47N 31°32' E 121°22'1036.3
2018-Apr-19 16:31N 31°39' E 121°13'121001.5
2018-Apr-19 16:30N 31°30' E 121°23'1155.9
2018-Apr-19 16:29N 31°31' E 121°23'4 1.3
2018-Apr-19 13:47N 31°28' E 121°25'218.6
2018-Apr-19 13:42N 31°29' E 121°24'4 5.4
2018-Apr-19 12:53N 31°32' E 121°20'91060.0
2018-Apr-19 12:53N 31°39' E 121°13'0 0.8
2018-Apr-19 12:30N 31°39' E 121°13'6275.5
2018-Apr-19 12:29N 31°34' E 121°18'822.3
2018-Apr-19 12:07N 31°28' E 121°25'1184.2
2018-Apr-19 11:59N 31°36' E 121°16'111099.5
2018-Apr-19 11:58N 31°28' E 121°25'1430.0
2018-Apr-19 11:29N 31°39' E 121°14'14537.9
2018-Apr-19 11:28N 31°28' E 121°25'5061650.0
2018-Apr-19 11:09N 23°17' E 119°10'5052633.6
2018-Apr-19 10:58N 31°26' E 121°28'350.2
2018-Apr-19 10:54N 31°28' E 121°25'50612061.3
2018-Apr-19 10:51N 23°17' E 119°10'5061368.8
2018-Apr-19 10:29N 31°28' E 121°26'16774.5
2018-Apr-19 10:28N 31°40' E 121°13'1429.5
2018-Apr-19 10:00N 31°30' E 121°24'14119.9
2018-Apr-19 09:53N 31°40' E 121°13'1125.4
2018-Apr-19 09:28N 31°31' E 121°21'1159.9
2018-Apr-19 09:16N 31°40' E 121°13'16205.5
2018-Apr-19 09:12N 31°28' E 121°25'733.4
2018-Apr-19 09:00N 31°33' E 121°19'7214.4
2018-Apr-19 08:58N 31°28' E 121°25'1680.8
2018-Apr-19 08:46N 31°40' E 121°13'726.9
2018-Apr-19 08:30N 31°34' E 121°18'754.0
2018-Apr-19 08:22N 31°40' E 121°13'615.5
2018-Apr-19 08:00N 31°35' E 121°17'1 2.3
2018-Apr-19 07:26N 31°36' E 121°16'1156.6
2018-Apr-19 07:14N 31°28' E 121°25'1252.8
2018-Apr-19 07:00N 31°37' E 121°16'1 2.5
2018-Apr-19 06:30N 31°38' E 121°14'35129.4
2018-Apr-19 06:13N 31°06' E 120°58'379474.5
2018-Apr-19 06:13N 31°40' E 121°13'1 3.5
2018-Apr-19 06:00N 31°39' E 121°14'1202.6
2018-Apr-19 05:59N 31°40' E 121°13'1419.6
2018-Apr-19 05:59N 31°39' E 121°13'1 1.4
2018-Apr-19 05:30N 31°39' E 121°13'1151.4
2018-Apr-19 05:29N 31°40' E 121°13'1 2.1
2018-Apr-19 04:57N 31°39' E 121°13'1 2.3
2018-Apr-19 04:29N 31°40' E 121°12'0 0.6
2018-Apr-19 03:59N 31°40' E 121°13'16444.0
2018-Apr-19 03:57N 31°28' E 121°25'538849609.2
2018-Apr-19 03:50N 49°18' W 123°02'3 7.3
2018-Apr-19 03:30N 49°18' W 123°06'538514899.6
2018-Apr-19 03:08N 31°40' E 121°13'0 0.0
2018-Apr-19 03:00N 31°40' E 121°13'1652.9
2018-Apr-19 02:42N 31°28' E 121°25'1653.3
2018-Apr-19 02:23N 31°40' E 121°12'1780.3
2018-Apr-19 02:11N 31°28' E 121°26'538356499.0
2018-Apr-19 02:05N 49°18' W 123°08'538367059.4
2018-Apr-19 02:00N 31°29' E 121°25'5384145724.4
2018-Apr-19 01:58N 49°18' W 123°07'538411462.7
2018-Apr-19 01:30N 31°30' E 121°23'53821210944.3
2018-Apr-19 01:30N 49°19' W 123°10'538210371.9
2018-Apr-19 00:59N 31°30' E 121°23'5381372545.2
2018-Apr-19 00:58N 49°17' W 123°12'498843902.9
2018-Apr-19 00:51N 38°51' E 122°01'498812992.6
2018-Apr-19 00:28N 49°17' W 123°12'4996108339.3
2018-Apr-19 00:25N 38°50' E 121°51'4412937.4
2018-Apr-19 00:16N 31°30' E 121°23'22111.7
2018-Apr-19 00:05N 31°12' E 121°09'540849039.7
2018-Apr-18 23:58N 49°17' W 123°09'538333995.3
2018-Apr-18 23:48N 31°30' E 121°23'538217024.2
2018-Apr-18 23:29N 49°18' W 123°11'5382121846.1
2018-Apr-18 23:27N 31°30' E 121°23'13296.1
2018-Apr-18 23:24N 31°40' E 121°13'538113322.8
2018-Apr-18 23:00N 49°19' W 123°10'538223399.7
2018-Apr-18 22:46N 31°30' E 121°23'538520556.3
2018-Apr-18 22:31N 49°18' W 123°06'538547050.0
2018-Apr-18 22:24N 31°30' E 121°23'13124.0
2018-Apr-18 22:18N 31°40' E 121°13'1653.6
2018-Apr-18 22:00N 31°28' E 121°26'3736.2
2018-Apr-18 22:00N 31°30' E 121°23'13182.8
2018-Apr-18 21:55N 31°40' E 121°13'538321723.1
2018-Apr-18 21:41N 49°18' W 123°08'538430379.9
2018-Apr-18 21:30N 31°31' E 121°22'142.9
2018-Apr-18 21:29N 31°30' E 121°23'13734.3
2018-Apr-18 21:28N 31°40' E 121°13'961.7
2018-Apr-18 21:20N 31°34' E 121°20'53834844821.3
2018-Apr-18 21:20N 49°18' W 123°08'538228286.0
2018-Apr-18 21:08N 31°30' E 121°25'643.0
2018-Apr-18 21:00N 31°33' E 121°19'92870.3
2018-Apr-18 20:59N 31°40' E 121°13'13292.9
2018-Apr-18 20:57N 31°30' E 121°23'2515.8
2018-Apr-18 20:57N 31°32' E 121°22'5383298128.4
2018-Apr-18 20:56N 49°18' W 123°08'538312568.3
2018-Apr-18 20:30N 31°32' E 121°21'5912.0
2018-Apr-18 20:30N 31°35' E 121°17'7720.7
2018-Apr-18 20:29N 31°30' E 121°23'5384807534.4
2018-Apr-18 20:29N 49°18' W 123°08'538325905.2
2018-Apr-18 20:16N 31°40' E 121°13'0 0.0
2018-Apr-18 20:00N 31°40' E 121°13'7967.9
2018-Apr-18 20:00N 31°34' E 121°18'5927.9
2018-Apr-18 20:00N 31°30' E 121°23'9552.2
2018-Apr-18 19:59N 31°37' E 121°15'538315320.2
2018-Apr-18 19:38N 49°18' W 123°08'538444553.5
2018-Apr-18 19:30N 31°39' E 121°13'12624.2
2018-Apr-18 19:29N 31°30' E 121°23'538433530.8
2018-Apr-18 19:20N 49°18' W 123°08'5383191852.1
2018-Apr-18 19:18N 31°40' E 121°13'538418148.5
2018-Apr-18 19:00N 49°18' W 123°06'53851292422.4
2018-Apr-18 19:00N 31°30' E 121°23'1380.4
2018-Apr-18 18:50N 31°40' E 121°12'1171.6
2018-Apr-18 18:49N 31°40' E 121°13'1339.1
2018-Apr-18 18:30N 31°30' E 121°23'10835.2
2018-Apr-18 18:29N 31°38' E 121°15'3948.1
2018-Apr-18 18:29N 31°40' E 121°13'715.4
2018-Apr-18 18:00N 31°35' E 121°19'579.4
2018-Apr-18 17:56N 31°30' E 121°23'434.0
2018-Apr-18 17:49N 31°34' E 121°20'411.2
2018-Apr-18 17:30N 31°31' E 121°22'017.2
2018-Apr-18 17:28N 31°30' E 121°23'2 5.3
2018-Apr-18 17:00N 31°29' E 121°25'102352.3
2018-Apr-18 16:59N 31°37' E 121°18'8199.7
2018-Apr-18 16:57N 31°30' E 121°23'356.7
2018-Apr-18 16:54N 31°28' E 121°25'1666.5
2018-Apr-18 16:39N 31°40' E 121°13'213.3
2018-Apr-18 16:29N 31°40' E 121°16'263.8
2018-Apr-18 16:27N 31°40' E 121°13'14982.0
2018-Apr-18 16:26N 31°29' E 121°25'214.8
2018-Apr-18 16:19N 31°30' E 121°23'0 0.0
2018-Apr-18 16:00N 31°30' E 121°23'1387.1
2018-Apr-18 15:51N 31°40' E 121°13'16290.1
2018-Apr-18 15:48N 31°28' E 121°25'137.4
2018-Apr-18 15:46N 31°29' E 121°25'2 6.7
2018-Apr-18 15:29N 31°30' E 121°23'3 8.9
2018-Apr-18 15:08N 31°28' E 121°25'0 0.0
2018-Apr-18 14:40N 31°28' E 121°25'5508144.9
2018-Apr-18 14:36N 22°37' E 118°48'2593714.9
2018-Apr-18 14:32N 22°18' E 114°09'1 9.4
2018-Apr-18 14:28N 22°18' E 114°09'67426093.9
2018-Apr-18 14:26N 31°28' E 121°25'55016767.3
2018-Apr-18 14:24N 22°37' E 118°48'5501364.5
2018-Apr-18 14:00N 31°28' E 121°25'325.0
2018-Apr-18 13:52N 31°30' E 121°23'3 7.6
2018-Apr-18 13:28N 31°28' E 121°25'336.7
2018-Apr-18 13:23N 31°30' E 121°23'0 0.0
2018-Apr-18 12:59N 31°30' E 121°23'3119.4
2018-Apr-18 12:58N 31°28' E 121°25'0 0.0
2018-Apr-18 12:30N 31°28' E 121°25'314.9
2018-Apr-18 12:17N 31°30' E 121°23'420.4
2018-Apr-18 12:07N 31°33' E 121°20'999.0
2018-Apr-18 12:01N 31°40' E 121°13'1374.9
2018-Apr-18 11:51N 31°30' E 121°23'0 0.0
2018-Apr-18 11:28N 31°30' E 121°23'323.2
2018-Apr-18 11:20N 31°28' E 121°25'3 8.4
2018-Apr-18 10:58N 31°30' E 121°23'357.9
2018-Apr-18 10:55N 31°28' E 121°25'1649.2
2018-Apr-18 10:36N 31°40' E 121°13'13140.3
2018-Apr-18 10:30N 31°30' E 121°23'31388.4
2018-Apr-18 10:30N 31°28' E 121°25'1 7.6
2018-Apr-18 10:21N 31°29' E 121°25'15167.0
2018-Apr-18 10:15N 31°40' E 121°13'1349.4
2018-Apr-18 10:00N 31°30' E 121°23'151.4
2018-Apr-18 09:59N 31°30' E 121°24'14183.8
2018-Apr-18 09:54N 31°40' E 121°13'1331.4
2018-Apr-18 09:30N 31°30' E 121°23'1 7.8
2018-Apr-18 09:21N 31°30' E 121°24'1 3.3
2018-Apr-18 08:58N 31°30' E 121°23'1 5.0
2018-Apr-18 08:44N 31°30' E 121°24'0 0.1
2018-Apr-18 08:30N 31°30' E 121°24'2280.6
2018-Apr-18 08:29N 31°28' E 121°25'16179.1
2018-Apr-18 08:24N 31°40' E 121°13'13463.2
2018-Apr-18 08:23N 31°30' E 121°23'1330.4
2018-Apr-18 07:58N 31°40' E 121°13'14204.9
2018-Apr-18 07:54N 31°30' E 121°24'1 2.1
2018-Apr-18 07:20N 31°30' E 121°23'124.7
2018-Apr-18 07:18N 31°30' E 121°24'52174.8
2018-Apr-18 07:00N 32°00' E 120°34'52244.4
2018-Apr-18 06:47N 31°30' E 121°24'162.7
2018-Apr-18 06:46N 31°30' E 121°23'0 0.0
2018-Apr-18 06:27N 31°30' E 121°23'1 4.0
2018-Apr-18 06:10N 31°30' E 121°24'1 6.1
2018-Apr-18 05:58N 31°30' E 121°23'1 9.2
2018-Apr-18 05:51N 31°30' E 121°24'534.1
2018-Apr-18 05:42N 31°34' E 121°20'420.9
2018-Apr-18 05:30N 31°30' E 121°23'182.7
2018-Apr-18 05:29N 31°30' E 121°24'2 5.9
2018-Apr-18 05:08N 31°28' E 121°25'211.4
2018-Apr-18 04:58N 31°30' E 121°24'123.6
2018-Apr-18 04:55N 31°30' E 121°23'346.1
2018-Apr-18 04:51N 31°28' E 121°25'15247.0
2018-Apr-18 04:47N 31°39' E 121°14'53220385.3
2018-Apr-18 04:45N 23°27' E 117°24'533100955.6
2018-Apr-18 04:45N 31°40' E 121°13'5312021.9
2018-Apr-18 04:29N 23°29' E 117°23'5305943.9
2018-Apr-18 04:24N 31°38' E 121°16'10436.6
2018-Apr-18 04:23N 31°30' E 121°24'14595.5
2018-Apr-18 04:21N 31°40' E 121°13'13108.6
2018-Apr-18 04:14N 31°30' E 121°23'18196.4
2018-Apr-18 04:09N 31°14' E 121°30'5113542.3
2018-Apr-18 04:00N 23°33' E 117°22'526126245.1
2018-Apr-18 04:00N 31°35' E 121°18'6216.1
2018-Apr-18 03:58N 31°30' E 121°23'118.4
2018-Apr-18 03:55N 31°30' E 121°24'220.5
2018-Apr-18 03:49N 31°28' E 121°25'4502890.5
2018-Apr-18 03:39N 38°58' E 121°43'4393218.6
2018-Apr-18 03:31N 31°40' E 121°13'16431.8
2018-Apr-18 03:29N 31°28' E 121°25'6653.1
2018-Apr-18 03:28N 31°33' E 121°21'380.3
2018-Apr-18 03:26N 31°30' E 121°23'4502015.9
2018-Apr-18 03:13N 39°00' E 121°41'4512648.0
2018-Apr-18 03:03N 31°30' E 121°24'113.8
2018-Apr-18 02:57N 31°30' E 121°23'1713.1
2018-Apr-18 02:57N 31°30' E 121°24'45115029.5
2018-Apr-18 02:56N 39°00' E 121°41'4501079.1
2018-Apr-18 02:31N 31°30' E 121°23'188.9
2018-Apr-18 02:30N 31°30' E 121°24'45112781.1
2018-Apr-18 02:28N 39°00' E 121°41'4412133.4
2018-Apr-18 02:15N 31°40' E 121°13'4411771.4
2018-Apr-18 02:00N 39°00' E 121°41'45140579.5
2018-Apr-18 02:00N 31°30' E 121°24'116.3
2018-Apr-18 01:55N 31°30' E 121°23'12732.4
2018-Apr-18 01:54N 31°40' E 121°13'15680.0
2018-Apr-18 01:53N 31°28' E 121°25'4414267.0
2018-Apr-18 01:46N 35°07' E 129°03'4431663.1
2018-Apr-18 01:30N 31°39' E 121°14'112797.4
2018-Apr-18 01:30N 31°30' E 121°23'3127.7
2018-Apr-18 01:29N 31°28' E 121°25'45230727.8
2018-Apr-18 01:28N 39°00' E 121°41'451202900.4
2018-Apr-18 01:28N 31°30' E 121°24'4871605.2
2018-Apr-18 01:10N 23°33' E 119°32'1 7.6
2018-Apr-18 01:00N 23°34' E 119°33'48751545.8
2018-Apr-18 01:00N 31°30' E 121°23'9920.8
2018-Apr-18 00:59N 31°37' E 121°16'44410936.2
2018-Apr-18 00:57N 39°00' E 121°41'45113415.1
2018-Apr-18 00:55N 31°30' E 121°24'0 0.0
2018-Apr-18 00:30N 31°30' E 121°24'486218523.6
2018-Apr-18 00:30N 23°34' E 119°35'933119924.2
2018-Apr-18 00:30N 39°00' E 121°41'44584274.8
2018-Apr-18 00:29N 31°36' E 121°18'71718.3
2018-Apr-18 00:29N 31°30' E 121°23'0 3.4
2018-Apr-18 00:25N 31°30' E 121°23'33321.3
2018-Apr-18 00:18N 31°06' E 120°56'4761569.5
2018-Apr-18 00:00N 39°00' E 121°41'446229454.9
2018-Apr-18 00:00N 31°35' E 121°19'489352438.0
2018-Apr-18 00:00N 23°34' E 119°35'48664747.7
2018-Apr-18 00:00N 31°30' E 121°24'132.4
2018-Apr-17 23:57N 31°30' E 121°23'358.1
2018-Apr-17 23:54N 31°32' E 121°20'44111029.2
2018-Apr-17 23:52N 35°06' E 129°02'4411214.1
2018-Apr-17 23:30N 31°33' E 121°20'488103381.5
2018-Apr-17 23:30N 23°34' E 119°35'48630698.5
2018-Apr-17 23:29N 31°30' E 121°23'119.4
2018-Apr-17 23:25N 31°30' E 121°24'2 5.1
2018-Apr-17 22:57N 31°32' E 121°22'1289.0
2018-Apr-17 22:56N 31°30' E 121°23'110.0
2018-Apr-17 22:49N 31°30' E 121°24'1 3.4
2018-Apr-17 22:30N 31°31' E 121°24'1 9.1
2018-Apr-17 22:22N 31°30' E 121°23'126.1
2018-Apr-17 22:20N 31°30' E 121°24'1 3.4
2018-Apr-17 21:58N 31°30' E 121°23'395.2
2018-Apr-17 21:56N 31°29' E 121°27'2284.9
2018-Apr-17 21:55N 31°30' E 121°24'1 2.7
2018-Apr-17 21:27N 31°30' E 121°23'111.5
2018-Apr-17 21:21N 31°30' E 121°24'5315.8
2018-Apr-17 21:20N 31°27' E 121°29'617.6
2018-Apr-17 20:59N 31°30' E 121°23'119.9
2018-Apr-17 20:56N 31°30' E 121°24'1 2.9
2018-Apr-17 20:29N 31°30' E 121°23'130.5
2018-Apr-17 20:27N 31°30' E 121°24'1656.7
2018-Apr-17 20:10N 31°43' E 121°14'1 5.4
2018-Apr-17 20:00N 31°42' E 121°14'15229.8
2018-Apr-17 19:57N 31°30' E 121°24'111.4
2018-Apr-17 19:50N 31°30' E 121°23'1129.9
2018-Apr-17 19:29N 31°39' E 121°16'12276.5
2018-Apr-17 19:27N 31°30' E 121°24'1 3.5
2018-Apr-17 19:07N 31°30' E 121°23'1 9.8
2018-Apr-17 19:00N 31°30' E 121°24'1829.3
2018-Apr-17 18:59N 31°30' E 121°23'520.3
2018-Apr-17 18:44N 31°34' E 121°19'22113.9
2018-Apr-17 18:33N 31°14' E 121°30'21479.4
2018-Apr-17 18:30N 31°33' E 121°20'41342.2
2018-Apr-17 18:30N 31°30' E 121°24'116.4
2018-Apr-17 18:26N 31°30' E 121°23'17445.7
2018-Apr-17 18:23N 31°14' E 121°29'4664282.0
2018-Apr-17 18:17N 39°00' E 121°41'4511642.8
2018-Apr-17 18:00N 31°30' E 121°24'45131824.4
2018-Apr-17 18:00N 39°00' E 121°41'4501410.7
2018-Apr-17 17:40N 31°30' E 121°23'1 6.6
2018-Apr-17 17:30N 31°30' E 121°24'125.8
2018-Apr-17 17:27N 31°30' E 121°23'45024191.8
2018-Apr-17 17:26N 39°00' E 121°41'0 0.0
2018-Apr-17 16:58N 39°00' E 121°41'45010663.5
2018-Apr-17 16:56N 31°30' E 121°23'132.2
2018-Apr-17 16:54N 31°30' E 121°24'4282988.6
2018-Apr-17 16:45N 38°37' E 121°32'4271683.4
2018-Apr-17 16:30N 31°30' E 121°23'115.4
2018-Apr-17 16:26N 31°30' E 121°24'45118655.7
2018-Apr-17 16:24N 39°00' E 121°41'4511038.4
2018-Apr-17 15:58N 31°30' E 121°24'110.0
2018-Apr-17 15:52N 31°30' E 121°23'4506839.0
2018-Apr-17 15:48N 39°00' E 121°41'4501384.2
2018-Apr-17 15:28N 31°30' E 121°23'112.4
2018-Apr-17 15:23N 31°30' E 121°24'4515655.0
2018-Apr-17 15:18N 39°00' E 121°41'4501238.2
2018-Apr-17 14:56N 31°30' E 121°23'115.4
2018-Apr-17 14:51N 31°30' E 121°24'4513139.5
2018-Apr-17 14:43N 39°00' E 121°41'4501765.6
2018-Apr-17 14:28N 31°30' E 121°23'45026571.4
2018-Apr-17 14:27N 39°00' E 121°41'45114364.1
2018-Apr-17 14:25N 31°30' E 121°24'4292130.2
2018-Apr-17 14:13N 38°39' E 121°38'424.2
2018-Apr-17 14:03N 38°38' E 121°43'22531.4
2018-Apr-17 14:00N 39°00' E 121°41'45150723.8
2018-Apr-17 14:00N 31°30' E 121°24'42912366.5
2018-Apr-17 13:58N 38°39' E 121°38'42923037.0
2018-Apr-17 13:56N 31°30' E 121°23'526.1
2018-Apr-17 13:45N 31°27' E 121°28'519.3
2018-Apr-17 13:29N 31°30' E 121°23'4273.0
2018-Apr-17 13:28N 31°28' E 121°26'45219858.5
2018-Apr-17 13:27N 39°00' E 121°41'4513749.8
2018-Apr-17 13:20N 31°30' E 121°24'236.3
2018-Apr-17 13:17N 31°28' E 121°25'43012200.1
2018-Apr-17 13:15N 38°39' E 121°33'4313942.3
2018-Apr-17 13:08N 31°27' E 121°27'431.3
2018-Apr-17 13:00N 31°30' E 121°24'1108.5
2018-Apr-17 13:00N 31°30' E 121°23'22971.0
2018-Apr-17 13:00N 31°29' E 121°25'23525.4
2018-Apr-17 13:00N 31°30' E 121°23'125.3
2018-Apr-17 12:56N 31°29' E 121°25'121.1
2018-Apr-17 12:53N 31°28' E 121°25'0 6.0
2018-Apr-17 12:49N 31°29' E 121°25'4323624.5
2018-Apr-17 12:42N 38°40' E 121°39'4302287.8
2018-Apr-17 12:30N 31°31' E 121°21'045.9
2018-Apr-17 12:30N 31°31' E 121°21'2742.7
2018-Apr-17 12:29N 31°30' E 121°23'31559.5
2018-Apr-17 12:29N 31°32' E 121°21'545.9
2018-Apr-17 12:23N 31°29' E 121°25'042.7
2018-Apr-17 12:23N 31°29' E 121°25'616.7
2018-Apr-17 12:00N 31°33' E 121°19'071.3
2018-Apr-17 12:00N 31°33' E 121°20'6161.0
2018-Apr-17 11:58N 31°29' E 121°25'0 1.3
2018-Apr-17 11:45N 31°29' E 121°25'4324805.0
2018-Apr-17 11:40N 38°41' E 121°39'4252516.5
2018-Apr-17 11:30N 31°37' E 121°16'2559.9
2018-Apr-17 11:30N 31°35' E 121°17'7645.0
2018-Apr-17 11:29N 31°30' E 121°23'4318301.7
2018-Apr-17 11:26N 38°41' E 121°40'426255870.5
2018-Apr-17 11:26N 31°35' E 121°17'413.6
2018-Apr-17 11:09N 31°32' E 121°20'967.0
2018-Apr-17 11:00N 31°39' E 121°13'3904.2
2018-Apr-17 11:00N 31°37' E 121°15'072.3
2018-Apr-17 11:00N 31°37' E 121°16'423785.0
2018-Apr-17 10:27N 38°39' E 121°39'4203422.5
2018-Apr-17 10:20N 31°39' E 121°13'477.0
2018-Apr-17 10:17N 31°42' E 121°09'32013.9
2018-Apr-17 10:17N 31°40' E 121°12'491.9
2018-Apr-17 10:14N 31°37' E 121°16'621.0
2018-Apr-17 09:57N 31°41' E 121°11'2 4.9
2018-Apr-17 09:30N 31°42' E 121°09'19212.5
2018-Apr-17 09:25N 31°29' E 121°25'636.1
2018-Apr-17 09:15N 31°31' E 121°18'614.0
2018-Apr-17 08:50N 31°29' E 121°25'428922.5
2018-Apr-17 08:22N 38°37' E 121°34'428140096.2
2018-Apr-17 08:22N 31°29' E 121°25'1 3.7
2018-Apr-17 08:00N 31°30' E 121°23'2 3.5
2018-Apr-17 07:30N 31°31' E 121°22'2 2.9
2018-Apr-17 06:53N 31°32' E 121°20'1 2.2
2018-Apr-17 06:28N 31°33' E 121°19'1 1.8
2018-Apr-17 05:58N 31°34' E 121°19'4471870.2
2018-Apr-17 05:44N 39°00' E 121°41'0 0.0
2018-Apr-17 05:25N 39°00' E 121°41'44759557.6
2018-Apr-17 05:25N 31°34' E 121°18'2351.9
2018-Apr-17 04:58N 31°20' E 120°57'4624200.3
2018-Apr-17 04:52N 39°00' E 121°41'45021017.3
2018-Apr-17 04:50N 31°31' E 121°19'724.2
2018-Apr-17 04:33N 31°37' E 121°16'392.3
2018-Apr-17 04:32N 31°35' E 121°18'4469277.0
2018-Apr-17 04:29N 39°00' E 121°41'44417374.6
2018-Apr-17 04:27N 31°37' E 121°17'24324.7
2018-Apr-17 04:23N 31°20' E 120°57'43960744.3
2018-Apr-17 04:22N 38°37' E 121°40'42228148.6
2018-Apr-17 04:21N 31°35' E 121°17'1 1.8
2018-Apr-17 04:00N 31°36' E 121°17'21228.1
2018-Apr-17 04:00N 31°34' E 121°19'244499.3
2018-Apr-17 04:00N 31°20' E 120°57'43930966.4
2018-Apr-17 03:59N 38°37' E 121°41'2385.8
2018-Apr-17 03:43N 39°00' E 121°41'24116.6
2018-Apr-17 03:30N 38°37' E 121°43'249473.8
2018-Apr-17 03:30N 39°00' E 121°41'44967324.3
2018-Apr-17 03:30N 31°32' E 121°22'72950.0
2018-Apr-17 03:30N 31°37' E 121°16'23177.7
2018-Apr-17 03:22N 31°20' E 120°57'4381200.6
2018-Apr-17 03:00N 38°36' E 121°44'41930766.1
2018-Apr-17 02:59N 31°38' E 121°14'23511.8
2018-Apr-17 02:56N 31°20' E 120°57'0 0.2
2018-Apr-17 02:29N 31°20' E 120°57'0 0.1
2018-Apr-17 01:59N 31°20' E 120°57'4621240.6
2018-Apr-17 01:36N 39°00' E 121°41'22756.0
2018-Apr-17 01:34N 38°40' E 121°33'4415291.2
2018-Apr-17 01:29N 31°20' E 120°57'44117658.9
2018-Apr-17 01:28N 38°40' E 121°32'4031138.5
2018-Apr-17 01:07N 32°01' E 120°25'50448.0
2018-Apr-17 01:00N 31°20' E 120°57'503657.3
2018-Apr-17 00:59N 32°02' E 120°26'4231831.2
2018-Apr-17 00:45N 39°00' E 121°41'0 0.0
2018-Apr-17 00:30N 39°00' E 121°41'462184842.3
2018-Apr-17 00:30N 31°20' E 120°57'49325.1
2018-Apr-17 00:21N 32°02' E 120°29'49139.2
2018-Apr-17 00:00N 31°20' E 120°57'4629785.8
2018-Apr-16 23:57N 39°00' E 121°41'468917.7
2018-Apr-16 23:27N 31°13' E 121°09'1 3.3
2018-Apr-16 23:00N 31°11' E 121°09'22673.9
2018-Apr-16 22:58N 31°29' E 121°25'523.5
2018-Apr-16 22:44N 31°32' E 121°20'1 5.2
2018-Apr-16 22:30N 31°33' E 121°19'251667.7
2018-Apr-16 22:29N 31°10' E 121°09'24219.6
2018-Apr-16 22:22N 31°32' E 121°20'4 9.7
2018-Apr-16 21:56N 31°36' E 121°17'2 5.3
2018-Apr-16 21:30N 31°37' E 121°15'5 0.9
2018-Apr-16 15:43N 31°34' E 121°20'718.0
2018-Apr-16 15:20N 31°38' E 121°14'0 0.0
2018-Apr-16 14:28N 31°38' E 121°14'0 0.1
2018-Apr-16 13:52N 31°38' E 121°14'0 1.1
2018-Apr-16 13:30N 31°39' E 121°14'832.4
2018-Apr-16 13:16N 31°33' E 121°20'2 5.1
2018-Apr-16 12:57N 31°34' E 121°19'5 5.6
2018-Apr-16 12:08N 31°37' E 121°15'1 5.9
2018-Apr-16 11:53N 31°38' E 121°14'8 6.8
2018-Apr-16 10:48N 31°33' E 121°20'4481355.5
2018-Apr-16 10:28N 38°60' E 121°41'44366.0
2018-Apr-16 03:45N 31°37' E 121°17'36372.7
2018-Apr-16 03:39N 31°06' E 120°58'34100.5
2018-Apr-16 03:19N 31°35' E 121°19'2 7.4
2018-Apr-16 03:00N 31°33' E 121°21'446741.0
2018-Apr-16 02:24N 38°59' E 121°42'1 2.3
2018-Apr-16 01:55N 38°60' E 121°41'4532554.9
2018-Apr-16 01:44N 31°27' E 121°28'2 4.5
2018-Apr-16 01:19N 31°28' E 121°26'4523866.8
2018-Apr-16 01:12N 39°00' E 121°41'0 0.0
2018-Apr-16 00:56N 39°00' E 121°41'4622736.2
2018-Apr-16 00:46N 31°20' E 120°57'4621749.3
2018-Apr-16 00:30N 39°00' E 121°41'4628992.3
2018-Apr-16 00:27N 31°20' E 120°57'4621043.7
2018-Apr-16 00:01N 39°00' E 121°41'451559.9
2018-Apr-15 23:12N 31°29' E 121°24'1 4.7
2018-Apr-15 23:00N 31°30' E 121°23'2 3.3
2018-Apr-15 22:29N 31°31' E 121°22'1815.5
2018-Apr-15 21:20N 31°15' E 121°30'6021.8
2018-Apr-15 18:36N 32°01' E 120°46'422147.2
2018-Apr-15 15:44N 39°00' E 121°41'4451383.7
2018-Apr-15 15:25N 31°36' E 121°18'4452659.4
2018-Apr-15 15:15N 39°00' E 121°41'4471795.8
2018-Apr-15 15:00N 31°34' E 121°20'4 6.9
2018-Apr-15 14:29N 31°32' E 121°23'3 6.2
2018-Apr-15 14:00N 31°30' E 121°26'45124959.4
2018-Apr-15 13:59N 39°00' E 121°41'4481710.5
2018-Apr-15 13:43N 31°33' E 121°21'53 9.8
2018-Apr-15 08:20N 31°58' E 120°26'670863.1
2018-Apr-15 07:33N 22°18' E 114°09'1 8.8
2018-Apr-15 07:29N 22°18' E 114°09'675384.6
2018-Apr-15 05:44N 31°30' E 121°25'3 6.5
2018-Apr-15 05:13N 31°32' E 121°21'1 6.6
2018-Apr-15 05:00N 31°33' E 121°20'4 6.3
2018-Apr-15 04:21N 31°36' E 121°17'2 5.9
2018-Apr-15 04:00N 31°38' E 121°17'172.4
2018-Apr-15 03:59N 31°39' E 121°16'2 3.6
2018-Apr-15 03:30N 31°41' E 121°15'  

Dump ship's entire track history